Observation data for Goodnight on 08/14/2019      Previous  Date  Next       Current Mesonet Observations  Soil Data  Daily Summary Page  Observations in Plain Language
KGO1 140500Z 07006KT 23/20 A302 RMK A01 T02330196  RH  079%=      5-min Rain = 0
KGO1 140501Z 07007KT 23/20 A302 RMK A01 T02340196  RH  079%=      5-min Rain = 0
KGO1 140502Z 06007KT 23/20 A302 RMK A01 T02340196  RH  079%=      5-min Rain = 0
KGO1 140503Z 07009KT 23/20 A302 RMK A01 T02340196  RH  079%=      5-min Rain = 0
KGO1 140504Z 06007KT 23/20 A302 RMK A01 T02340195  RH  079%=      5-min Rain = 0
KGO1 140505Z 05007KT 24/20 A302 RMK A01 T02350196  RH  079%=      5-min Rain = 0
KGO1 140506Z 05008KT 24/20 A302 RMK A01 T02350197  RH  080%=      5-min Rain = 0
KGO1 140507Z 05009KT 23/20 A3021 RMK A01 T02340198  RH  080%=      5-min Rain = 0
KGO1 140508Z 05008KT 23/20 A3021 RMK A01 T02330198  RH  081%=      5-min Rain = 0
KGO1 140509Z 05007KT 23/20 A3021 RMK A01 T02320198  RH  081%=      5-min Rain = 0
KGO1 140510Z 05007KT 23/20 A3021 RMK A01 T02320198  RH  082%=      5-min Rain = 0
KGO1 140527Z 05008KT 23/20 A3021 RMK A01 T02320198  RH  081%=      5-min Rain = 0
KGO1 140528Z 05007KT 23/20 A3021 RMK A01 T02320197  RH  081%=      5-min Rain = 0
KGO1 140529Z 05007KT 23/20 A3021 RMK A01 T02320197  RH  081%=      5-min Rain = 0
KGO1 140530Z 06007KT 23/20 A3021 RMK A01 T02320198  RH  081%=      5-min Rain = 0
KGO1 140531Z 06008KT 23/20 A3021 RMK A01 T02310198  RH  081%=      5-min Rain = 0
KGO1 140532Z 06007KT 23/20 A3021 RMK A01 T02310198  RH  081%=      5-min Rain = 0
KGO1 140533Z 06008KT 23/20 A3021 RMK A01 T02310197  RH  081%=      5-min Rain = 0
KGO1 140534Z 06008KT 23/20 A3021 RMK A01 T02310197  RH  081%=      5-min Rain = 0
KGO1 140535Z 06008KT 23/20 A3021 RMK A01 T02310197  RH  081%=      5-min Rain = 0
KGO1 140536Z 06008KT 23/20 A3021 RMK A01 T02310196  RH  081%=      5-min Rain = 0
KGO1 140537Z 06008KT 23/20 A3021 RMK A01 T02320196  RH  081%=      5-min Rain = 0
KGO1 140538Z 06008KT 23/20 A3021 RMK A01 T02320196  RH  080%=      5-min Rain = 0
KGO1 140539Z 06008KT 23/20 A3021 RMK A01 T02320196  RH  080%=      5-min Rain = 0
KGO1 140540Z 06008KT 23/20 A3021 RMK A01 T02320196  RH  080%=      5-min Rain = 0
KGO1 140541Z 06008KT 23/20 A3021 RMK A01 T02330196  RH  080%=      5-min Rain = 0
KGO1 140542Z 06008KT 23/20 A3021 RMK A01 T02330196  RH  080%=      5-min Rain = 0
KGO1 140543Z 06008KT 23/20 A3021 RMK A01 T02330195  RH  079%=      5-min Rain = 0
KGO1 140544Z 06009KT 23/20 A3021 RMK A01 T02330196  RH  079%=      5-min Rain = 0
KGO1 140545Z 06009KT 23/20 A3021 RMK A01 T02330195  RH  079%=      5-min Rain = 0
KGO1 140546Z 06009KT 23/20 A3021 RMK A01 T02330195  RH  079%=      5-min Rain = 0
KGO1 140547Z 06008KT 23/20 A3021 RMK A01 T02330196  RH  079%=      5-min Rain = 0
KGO1 140548Z 06008KT 23/20 A3021 RMK A01 T02330195  RH  079%=      5-min Rain = 0
KGO1 140549Z 06009KT 23/20 A3021 RMK A01 T02330195  RH  079%=      5-min Rain = 0
KGO1 140550Z 06008KT 23/20 A3021 RMK A01 T02330195  RH  079%=      5-min Rain = 0
KGO1 140551Z 06008KT 23/20 A3021 RMK A01 T02330196  RH  079%=      5-min Rain = 0
KGO1 140552Z 06008KT 23/20 A3021 RMK A01 T02320195  RH  080%=      5-min Rain = 0
KGO1 140553Z 06008KT 23/20 A3021 RMK A01 T02320195  RH  080%=      5-min Rain = 0
KGO1 140554Z 06007KT 23/20 A3021 RMK A01 T02320195  RH  080%=      5-min Rain = 0
KGO1 140555Z 06007KT 23/20 A302 RMK A01 T02320195  RH  080%=      5-min Rain = 0
KGO1 140556Z 06007KT 23/20 A302 RMK A01 T02310195  RH  080%=      5-min Rain = 0
KGO1 140557Z 06007KT 23/20 A302 RMK A01 T02310195  RH  080%=      5-min Rain = 0
KGO1 140558Z 06007KT 23/20 A302 RMK A01 T02310195  RH  080%=      5-min Rain = 0
KGO1 140559Z 06007KT 23/20 A302 RMK A01 T02300195  RH  081%=      5-min Rain = 0
KGO1 140600Z 06007KT 23/20 A302 RMK A01 T02300195  RH  081%=      5-min Rain = 0
KGO1 140601Z 06007KT 23/20 A302 RMK A01 T02290195  RH  081%=      5-min Rain = 0
KGO1 140602Z 07007KT 23/20 A302 RMK A01 T02290195  RH  081%=      5-min Rain = 0
KGO1 140603Z 06007KT 23/19 A302 RMK A01 T02290194  RH  081%=      5-min Rain = 0
KGO1 140604Z 06008KT 23/20 A302 RMK A01 T02290195  RH  081%=      5-min Rain = 0
KGO1 140605Z 04009KT 23/20 A302 RMK A01 T02290195  RH  081%=      5-min Rain = 0
KGO1 140606Z 04011KT 23/20 A3021 RMK A01 T02290196  RH  082%=      5-min Rain = 0
KGO1 140607Z 04011KT 23/20 A3021 RMK A01 T02280196  RH  082%=      5-min Rain = 0
KGO1 140608Z 04011G16KT 23/20 A3021 RMK A01 T02270195  RH  082%=      5-min Rain = 0
KGO1 140609Z 04013KT 23/19 A3021 RMK A01 T02270194  RH  082%=      5-min Rain = 0
KGO1 140610Z 05011KT 23/19 A3021 RMK A01 T02270194  RH  082%=      5-min Rain = 0
KGO1 140611Z 03016KT 23/19 A3021 RMK A01 T02260194  RH  082%=      5-min Rain = 0
KGO1 140612Z 03019G24KT 22/19 A3021 RMK A01 T02240188  RH  080%=      5-min Rain = 0
KGO1 140613Z 03017G25KT 22/18 A3021 RMK A01 T02220182  RH  078%=      5-min Rain = 0
KGO1 140614Z 04020KT 22/18 A3021 RMK A01 T02190181  RH  079%=      5-min Rain = 0
KGO1 140615Z 04019KT 22/18 A3021 RMK A01 T02170176  RH  078%=      5-min Rain = 0
KGO1 140616Z 05017KT 22/17 A3021 RMK A01 T02150174  RH  077%=      5-min Rain = 0
KGO1 140617Z 05018KT 21/17 A3021 RMK A01 T02140174  RH  078%=      5-min Rain = 0
KGO1 140618Z 05017KT 21/18 A3021 RMK A01 T02130175  RH  079%=      5-min Rain = 0
KGO1 140619Z 05017KT 21/18 A3021 RMK A01 T02130176  RH  079%=      5-min Rain = 0
KGO1 140620Z 05014KT 21/18 A3021 RMK A01 T02130175  RH  079%=      5-min Rain = 0
KGO1 140621Z 04017KT 21/17 A3021 RMK A01 T02120173  RH  078%=      5-min Rain = 0
KGO1 140622Z 05017KT 21/17 A3021 RMK A01 T02120170  RH  077%=      5-min Rain = 0
KGO1 140623Z 05017G22KT 21/17 A3021 RMK A01 T02110168  RH  076%=      5-min Rain = 0
KGO1 140624Z 05014KT 21/17 A3021 RMK A01 T02110167  RH  076%=      5-min Rain = 0
KGO1 140625Z 04015KT 21/17 A3021 RMK A01 T02100166  RH  076%=      5-min Rain = 0
KGO1 140626Z 04011KT 21/17 A3021 RMK A01 T02090165  RH  076%=      5-min Rain = 0
KGO1 140627Z 05010KT 21/17 A3021 RMK A01 T02080165  RH  076%=      5-min Rain = 0
KGO1 140628Z 05013KT 21/16 A3021 RMK A01 T02070164  RH  076%=      5-min Rain = 0
KGO1 140629Z 05013KT 21/16 A3021 RMK A01 T02070163  RH  076%=      5-min Rain = 0
KGO1 140630Z 04014KT 21/16 A3021 RMK A01 T02060161  RH  075%=      5-min Rain = 0
KGO1 140631Z 04016KT 21/16 A3021 RMK A01 T02060160  RH  075%=      5-min Rain = 0
KGO1 140632Z 04016KT 21/16 A3021 RMK A01 T02060159  RH  074%=      5-min Rain = 0
KGO1 140633Z 05013KT 21/16 A3021 RMK A01 T02060158  RH  074%=      5-min Rain = 0
KGO1 140634Z 04016KT 21/16 A3021 RMK A01 T02060158  RH  074%=      5-min Rain = 0
KGO1 140635Z 04017KT 21/16 A3021 RMK A01 T02060156  RH  073%=      5-min Rain = 0
KGO1 140636Z 04017KT 21/15 A3021 RMK A01 T02060154  RH  072%=      5-min Rain = 0
KGO1 140637Z 04013G18KT 21/15 A3021 RMK A01 T02060153  RH  072%=      5-min Rain = 0
KGO1 140638Z 04014KT 21/15 A3021 RMK A01 T02050153  RH  072%=      5-min Rain = 0
KGO1 140639Z 05015KT 21/15 A3021 RMK A01 T02050152  RH  071%=      5-min Rain = 0
KGO1 140640Z 05016KT 21/15 A3021 RMK A01 T02050150  RH  071%=      5-min Rain = 0
KGO1 140641Z 05018KT 21/15 A3021 RMK A01 T02050149  RH  070%=      5-min Rain = 0
KGO1 140642Z 04018KT 21/15 A3021 RMK A01 T02050149  RH  070%=      5-min Rain = 0
KGO1 140643Z 04016KT 21/15 A3021 RMK A01 T02050149  RH  070%=      5-min Rain = 0
KGO1 140644Z 04013KT 21/15 A3021 RMK A01 T02050149  RH  070%=      5-min Rain = 0
KGO1 140645Z 04014KT 20/15 A3021 RMK A01 T02040149  RH  071%=      5-min Rain = 0
KGO1 140646Z 04012KT 20/15 A3021 RMK A01 T02040149  RH  071%=      5-min Rain = 0
KGO1 140647Z 04012KT 20/15 A3021 RMK A01 T02030150  RH  071%=      5-min Rain = 0
KGO1 140648Z 04009KT 20/15 A3021 RMK A01 T02020150  RH  072%=      5-min Rain = 0
KGO1 140649Z 03011KT 20/15 A3021 RMK A01 T02010151  RH  073%=      5-min Rain = 0
KGO1 140650Z 03013KT 20/15 A3021 RMK A01 T02010151  RH  073%=      5-min Rain = 0
KGO1 140651Z 04014G20KT 20/15 A3021 RMK A01 T02000150  RH  073%=      5-min Rain = 0
KGO1 140652Z 03013G19KT 20/15 A3021 RMK A01 T02000149  RH  072%=      5-min Rain = 0
KGO1 140653Z 04016G22KT 20/15 A3021 RMK A01 T02000148  RH  072%=      5-min Rain = 0
KGO1 140654Z 03012KT 20/15 A3021 RMK A01 T02010148  RH  072%=      5-min Rain = 0
KGO1 140655Z 03014KT 20/15 A3021 RMK A01 T02000147  RH  072%=      5-min Rain = 0
KGO1 140656Z 04013KT 20/15 A3021 RMK A01 T01990146  RH  071%=      5-min Rain = 0
KGO1 140657Z 04015G22KT 20/15 A3022 RMK A01 T01990145  RH  071%=      5-min Rain = 0
KGO1 140658Z 04016KT 20/14 A3022 RMK A01 T01990144  RH  071%=      5-min Rain = 0
KGO1 140659Z 05016KT 20/14 A3021 RMK A01 T01980144  RH  071%=      5-min Rain = 0
KGO1 140700Z 04017KT 20/14 A3021 RMK A01 T01980143  RH  070%=      5-min Rain = 0
KGO1 140701Z 04016KT 20/14 A3021 RMK A01 T01980143  RH  070%=      5-min Rain = 0
KGO1 140702Z 04016KT 20/14 A3021 RMK A01 T01980142  RH  070%=      5-min Rain = 0
KGO1 140703Z 04017KT 20/14 A3021 RMK A01 T01980142  RH  070%=      5-min Rain = 0
KGO1 140704Z 04017KT 20/14 A3021 RMK A01 T01970141  RH  070%=      5-min Rain = 0
KGO1 140705Z 04014KT 20/14 A3021 RMK A01 T01970141  RH  070%=      5-min Rain = 0
KGO1 140706Z 05014KT 20/14 A3021 RMK A01 T01960142  RH  071%=      5-min Rain = 0
KGO1 140707Z 04015KT 20/14 A3021 RMK A01 T01960142  RH  071%=      5-min Rain = 0
KGO1 140708Z 04012KT 20/14 A3021 RMK A01 T01950141  RH  071%=      5-min Rain = 0
KGO1 140709Z 05013G18KT 20/14 A3021 RMK A01 T01950142  RH  071%=      5-min Rain = 0
KGO1 140710Z 05013KT 20/14 A3021 RMK A01 T01950142  RH  071%=      5-min Rain = 0
KGO1 140711Z 04014KT 20/14 A3021 RMK A01 T01950142  RH  071%=      5-min Rain = 0
KGO1 140712Z 04014KT 20/14 A3021 RMK A01 T01950142  RH  071%=      5-min Rain = 0
KGO1 140713Z 04016KT 20/14 A3021 RMK A01 T01950141  RH  071%=      5-min Rain = 0
KGO1 140714Z 04015KT 19/14 A3021 RMK A01 T01940141  RH  071%=      5-min Rain = 0
KGO1 140715Z 04016KT 19/14 A3021 RMK A01 T01940141  RH  071%=      5-min Rain = 0
KGO1 140716Z 04014KT 19/14 A3021 RMK A01 T01940141  RH  071%=      5-min Rain = 0
KGO1 140717Z 04013KT 19/14 A3021 RMK A01 T01940141  RH  071%=      5-min Rain = 0
KGO1 140718Z 04014G19KT 19/14 A3021 RMK A01 T01930140  RH  071%=      5-min Rain = 0
KGO1 140719Z 04010KT 19/14 A3021 RMK A01 T01940141  RH  071%=      5-min Rain = 0
KGO1 140720Z 04014KT 19/14 A3021 RMK A01 T01930141  RH  072%=      5-min Rain = 0
KGO1 140721Z 04013KT 19/14 A3021 RMK A01 T01930141  RH  072%=      5-min Rain = 0
KGO1 140722Z 04013G18KT 19/14 A3021 RMK A01 T01920140  RH  071%=      5-min Rain = 0
KGO1 140723Z 03011KT 19/14 A3021 RMK A01 T01920139  RH  072%=      5-min Rain = 0
KGO1 140724Z 03012KT 19/14 A3021 RMK A01 T01920140  RH  072%=      5-min Rain = 0
KGO1 140725Z 03011KT 19/14 A3021 RMK A01 T01920140  RH  072%=      5-min Rain = 0
KGO1 140726Z 03011KT 19/14 A3021 RMK A01 T01920140  RH  072%=      5-min Rain = 0
KGO1 140727Z 03012KT 19/14 A3021 RMK A01 T01910140  RH  072%=      5-min Rain = 0
KGO1 140728Z 03011KT 19/14 A3021 RMK A01 T01910140  RH  072%=      5-min Rain = 0
KGO1 140729Z 03010KT 19/14 A3021 RMK A01 T01910141  RH  072%=      5-min Rain = 0
KGO1 140730Z 03013KT 19/14 A3021 RMK A01 T01910141  RH  073%=      5-min Rain = 0
KGO1 140731Z 03013KT 19/14 A3022 RMK A01 T01900140  RH  073%=      5-min Rain = 0
KGO1 140732Z 03011KT 19/14 A3022 RMK A01 T01910140  RH  072%=      5-min Rain = 0
KGO1 140733Z 03012KT 19/14 A3022 RMK A01 T01910140  RH  072%=      5-min Rain = 0
KGO1 140734Z 03011KT 19/14 A3022 RMK A01 T01910140  RH  072%=      5-min Rain = 0
KGO1 140735Z 02012KT 19/14 A3022 RMK A01 T01910140  RH  072%=      5-min Rain = 0
KGO1 140736Z 03011KT 19/14 A3022 RMK A01 T01910140  RH  072%=      5-min Rain = 0
KGO1 140737Z 02011KT 19/14 A3022 RMK A01 T01910140  RH  072%=      5-min Rain = 0
KGO1 140738Z 02011KT 19/14 A3022 RMK A01 T01900140  RH  072%=      5-min Rain = 0
KGO1 140739Z 03013KT 19/14 A3022 RMK A01 T01900140  RH  072%=      5-min Rain = 0
KGO1 140740Z 03013KT 19/14 A3022 RMK A01 T01900139  RH  072%=      5-min Rain = 0
KGO1 140741Z 03010KT 19/14 A3022 RMK A01 T01900139  RH  072%=      5-min Rain = 0
KGO1 140742Z 02012KT 19/14 A3022 RMK A01 T01900140  RH  073%=      5-min Rain = 0
KGO1 140743Z 03013KT 19/14 A3022 RMK A01 T01900139  RH  073%=      5-min Rain = 0
KGO1 140744Z 02009KT 19/14 A3022 RMK A01 T01900139  RH  072%=      5-min Rain = 0
KGO1 140745Z 02011KT 19/14 A3022 RMK A01 T01900140  RH  073%=      5-min Rain = 0
KGO1 140746Z 02009KT 19/14 A3022 RMK A01 T01890140  RH  073%=      5-min Rain = 0
KGO1 140747Z 03009KT 19/14 A3022 RMK A01 T01890140  RH  073%=      5-min Rain = 0
KGO1 140748Z 02009KT 19/14 A3022 RMK A01 T01880140  RH  073%=      5-min Rain = 0
KGO1 140749Z 03011KT 19/14 A3022 RMK A01 T01880140  RH  074%=      5-min Rain = 0
KGO1 140750Z 02010KT 19/14 A3021 RMK A01 T01880140  RH  074%=      5-min Rain = 0
KGO1 140751Z 02012KT 19/14 A3021 RMK A01 T01880140  RH  074%=      5-min Rain = 0
KGO1 140752Z 02011KT 19/14 A3021 RMK A01 T01880139  RH  073%=      5-min Rain = 0
KGO1 140753Z 03010KT 19/14 A3021 RMK A01 T01880139  RH  073%=      5-min Rain = 0
KGO1 140754Z 03010KT 19/14 A3021 RMK A01 T01880140  RH  074%=      5-min Rain = 0
KGO1 140755Z 02010KT 19/14 A3021 RMK A01 T01880140  RH  074%=      5-min Rain = 0
KGO1 140756Z 02012KT 19/14 A3021 RMK A01 T01880140  RH  074%=      5-min Rain = 0
KGO1 140757Z 02010KT 19/14 A3021 RMK A01 T01870140  RH  074%=      5-min Rain = 0
KGO1 140758Z 02011KT 19/14 A3021 RMK A01 T01870139  RH  074%=      5-min Rain = 0
KGO1 140759Z 02011KT 19/14 A3021 RMK A01 T01870139  RH  074%=      5-min Rain = 0
KGO1 140800Z 02010KT 19/14 A3021 RMK A01 T01870139  RH  073%=      5-min Rain = 0
KGO1 140801Z 02009KT 19/14 A3021 RMK A01 T01870139  RH  074%=      5-min Rain = 0
KGO1 140802Z 03011KT 19/14 A3021 RMK A01 T01870140  RH  074%=      5-min Rain = 0
KGO1 140803Z 03011KT 19/14 A3021 RMK A01 T01870140  RH  074%=      5-min Rain = 0
KGO1 140804Z 02013KT 19/14 A3021 RMK A01 T01870139  RH  074%=      5-min Rain = 0
KGO1 140805Z 02011KT 19/14 A302 RMK A01 T01870139  RH  073%=      5-min Rain = 0
KGO1 140806Z 03010KT 19/14 A302 RMK A01 T01880139  RH  073%=      5-min Rain = 0
KGO1 140807Z 03012KT 19/14 A302 RMK A01 T01870139  RH  073%=      5-min Rain = 0
KGO1 140808Z 03011KT 19/14 A302 RMK A01 T01880139  RH  073%=      5-min Rain = 0
KGO1 140809Z 03009KT 19/14 A302 RMK A01 T01880139  RH  073%=      5-min Rain = 0
KGO1 140810Z 03011KT 19/14 A302 RMK A01 T01880139  RH  073%=      5-min Rain = 0
KGO1 140811Z 03010KT 19/14 A302 RMK A01 T01880139  RH  073%=      5-min Rain = 0
KGO1 140812Z 02011KT 19/14 A302 RMK A01 T01870139  RH  073%=      5-min Rain = 0
KGO1 140813Z 02010KT 19/14 A302 RMK A01 T01870139  RH  073%=      5-min Rain = 0
KGO1 140814Z 02009KT 19/14 A302 RMK A01 T01880140  RH  074%=      5-min Rain = 0
KGO1 140815Z 02011KT 19/14 A302 RMK A01 T01870139  RH  074%=      5-min Rain = 0
KGO1 140816Z 02011KT 19/14 A302 RMK A01 T01870139  RH  074%=      5-min Rain = 0
KGO1 140817Z 02010KT 19/14 A302 RMK A01 T01870139  RH  074%=      5-min Rain = 0
KGO1 140818Z 03009KT 19/14 A302 RMK A01 T01870139  RH  074%=      5-min Rain = 0
KGO1 140819Z 02007KT 19/14 A302 RMK A01 T01870139  RH  074%=      5-min Rain = 0
KGO1 140820Z 02009KT 19/14 A302 RMK A01 T01870139  RH  074%=      5-min Rain = 0
KGO1 140821Z 02010KT 19/14 A302 RMK A01 T01870139  RH  074%=      5-min Rain = 0
KGO1 140822Z 02009KT 19/14 A302 RMK A01 T01880140  RH  074%=      5-min Rain = 0
KGO1 140823Z 03010KT 19/14 A302 RMK A01 T01880140  RH  074%=      5-min Rain = 0
KGO1 140824Z 02009KT 19/14 A302 RMK A01 T01870139  RH  073%=      5-min Rain = 0
KGO1 140825Z 02010KT 19/14 A302 RMK A01 T01880139  RH  073%=      5-min Rain = 0
KGO1 140826Z 03010G15KT 19/14 A302 RMK A01 T01880139  RH  073%=      5-min Rain = 0
KGO1 140827Z 02009KT 19/14 A302 RMK A01 T01890139  RH  073%=      5-min Rain = 0
KGO1 140828Z 02008KT 19/14 A302 RMK A01 T01890140  RH  073%=      5-min Rain = 0
KGO1 140829Z 03009KT 19/14 A302 RMK A01 T01890140  RH  073%=      5-min Rain = 0
KGO1 140830Z 02009KT 19/14 A302 RMK A01 T01890139  RH  073%=      5-min Rain = 0
KGO1 140831Z 03009KT 19/14 A302 RMK A01 T01890139  RH  073%=      5-min Rain = 0
KGO1 140832Z 02008KT 19/14 A302 RMK A01 T01890140  RH  073%=      5-min Rain = 0
KGO1 140833Z 02009KT 19/14 A302 RMK A01 T01890140  RH  073%=      5-min Rain = 0
KGO1 140834Z 02009KT 19/14 A302 RMK A01 T01890140  RH  073%=      5-min Rain = 0
KGO1 140835Z 02009KT 19/14 A302 RMK A01 T01880140  RH  073%=      5-min Rain = 0
KGO1 140836Z 02009KT 19/14 A302 RMK A01 T01880139  RH  073%=      5-min Rain = 0
KGO1 140837Z 02011KT 19/14 A302 RMK A01 T01880139  RH  073%=      5-min Rain = 0
KGO1 140838Z 02011KT 19/14 A302 RMK A01 T01890139  RH  073%=      5-min Rain = 0
KGO1 140839Z 02008KT 19/14 A302 RMK A01 T01890139  RH  073%=      5-min Rain = 0
KGO1 140840Z 03007KT 19/14 A302 RMK A01 T01890140  RH  073%=      5-min Rain = 0
KGO1 140841Z 03009KT 19/14 A302 RMK A01 T01890140  RH  073%=      5-min Rain = 0
KGO1 140842Z 03008KT 19/14 A3021 RMK A01 T01890140  RH  073%=      5-min Rain = 0
KGO1 140843Z 02008KT 19/14 A3021 RMK A01 T01890140  RH  073%=      5-min Rain = 0
KGO1 140844Z 02008KT 19/14 A3021 RMK A01 T01890140  RH  073%=      5-min Rain = 0
KGO1 140845Z 01009KT 19/14 A3021 RMK A01 T01890140  RH  073%=      5-min Rain = 0
KGO1 140846Z 01009KT 19/14 A3021 RMK A01 T01890140  RH  073%=      5-min Rain = 0
KGO1 140847Z 02008KT 19/14 A3021 RMK A01 T01880140  RH  074%=      5-min Rain = 0
KGO1 140848Z 02008KT 19/14 A3021 RMK A01 T01880140  RH  074%=      5-min Rain = 0
KGO1 140849Z 02009KT 19/14 A3021 RMK A01 T01880140  RH  074%=      5-min Rain = 0
KGO1 140850Z 02009KT 19/14 A3021 RMK A01 T01870140  RH  074%=      5-min Rain = 0
KGO1 140851Z 02007KT 19/14 A3021 RMK A01 T01880140  RH  074%=      5-min Rain = 0
KGO1 140852Z 02007KT 19/14 A3021 RMK A01 T01880141  RH  074%=      5-min Rain = 0
KGO1 140853Z 02009KT 19/14 A3021 RMK A01 T01870140  RH  074%=      5-min Rain = 0
KGO1 140854Z 02009KT 19/14 A3021 RMK A01 T01870140  RH  074%=      5-min Rain = 0
KGO1 140855Z 02009KT 19/14 A3021 RMK A01 T01870140  RH  074%=      5-min Rain = 0
KGO1 140856Z 02010KT 19/14 A3021 RMK A01 T01870140  RH  074%=      5-min Rain = 0
KGO1 140857Z 01010KT 19/14 A3021 RMK A01 T01870140  RH  074%=      5-min Rain = 0
KGO1 140858Z 01010KT 19/14 A3021 RMK A01 T01870141  RH  074%=      5-min Rain = 0
KGO1 140859Z 02011KT 19/14 A3021 RMK A01 T01870141  RH  074%=      5-min Rain = 0
KGO1 140900Z 02010KT 19/14 A3021 RMK A01 T01870141  RH  074%=      5-min Rain = 0
KGO1 140901Z 02010KT 19/14 A3021 RMK A01 T01870141  RH  074%=      5-min Rain = 0
KGO1 140902Z 02010KT 19/14 A3021 RMK A01 T01870141  RH  074%=      5-min Rain = 0
KGO1 140903Z 02012KT 19/14 A3021 RMK A01 T01870141  RH  075%=      5-min Rain = 0
KGO1 140904Z 02010KT 19/14 A3021 RMK A01 T01870141  RH  075%=      5-min Rain = 0
KGO1 140905Z 02010KT 19/14 A3021 RMK A01 T01870141  RH  075%=      5-min Rain = 0
KGO1 140906Z 02010KT 19/14 A3021 RMK A01 T01870142  RH  075%=      5-min Rain = 0
KGO1 140907Z 02011KT 19/14 A3021 RMK A01 T01870142  RH  075%=      5-min Rain = 0
KGO1 140908Z 02009KT 19/14 A3021 RMK A01 T01870142  RH  075%=      5-min Rain = 0
KGO1 140909Z 02011KT 19/14 A3021 RMK A01 T01860142  RH  075%=      5-min Rain = 0
KGO1 140910Z 02011KT 19/14 A3021 RMK A01 T01860142  RH  075%=      5-min Rain = 0
KGO1 140911Z 02010KT 19/14 A3021 RMK A01 T01860142  RH  075%=      5-min Rain = 0
KGO1 140912Z 02010KT 19/14 A3021 RMK A01 T01860142  RH  076%=      5-min Rain = 0
KGO1 140913Z 02011KT 19/14 A3022 RMK A01 T01860142  RH  076%=      5-min Rain = 0
KGO1 140914Z 02010KT 19/14 A3022 RMK A01 T01860142  RH  075%=      5-min Rain = 0
KGO1 140915Z 02011KT 19/14 A3022 RMK A01 T01870142  RH  075%=      5-min Rain = 0
KGO1 140916Z 02011KT 19/14 A3022 RMK A01 T01870143  RH  076%=      5-min Rain = 0
KGO1 140917Z 02010KT 19/14 A3022 RMK A01 T01870143  RH  076%=      5-min Rain = 0
KGO1 140918Z 02009KT 19/14 A3022 RMK A01 T01860143  RH  076%=      5-min Rain = 0
KGO1 140919Z 02009KT 19/14 A3022 RMK A01 T01860143  RH  076%=      5-min Rain = 0
KGO1 140920Z 02009KT 19/14 A3022 RMK A01 T01860143  RH  076%=      5-min Rain = 0
KGO1 140921Z 02009KT 19/14 A3022 RMK A01 T01860144  RH  077%=      5-min Rain = 0
KGO1 140922Z 02009KT 19/14 A3022 RMK A01 T01860144  RH  077%=      5-min Rain = 0
KGO1 140923Z 02010KT 19/14 A3022 RMK A01 T01860144  RH  076%=      5-min Rain = 0
KGO1 140924Z 02010KT 19/14 A3022 RMK A01 T01860144  RH  076%=      5-min Rain = 0
KGO1 140925Z 02010KT 19/14 A3022 RMK A01 T01860144  RH  076%=      5-min Rain = 0
KGO1 140926Z 02010KT 19/14 A3022 RMK A01 T01860144  RH  076%=      5-min Rain = 0
KGO1 140927Z 01010KT 19/14 A3022 RMK A01 T01860144  RH  076%=      5-min Rain = 0
KGO1 140928Z 01010KT 19/15 A3022 RMK A01 T01870145  RH  076%=      5-min Rain = 0
KGO1 140929Z 01009KT 19/15 A3022 RMK A01 T01870145  RH  076%=      5-min Rain = 0
KGO1 140930Z 01009KT 19/15 A3022 RMK A01 T01870145  RH  077%=      5-min Rain = 0
KGO1 140931Z 02010KT 19/15 A3022 RMK A01 T01870146  RH  077%=      5-min Rain = 0
KGO1 140932Z 01010KT 19/15 A3022 RMK A01 T01870145  RH  076%=      5-min Rain = 0
KGO1 140933Z 01010KT 19/15 A3022 RMK A01 T01880145  RH  076%=      5-min Rain = 0
KGO1 140934Z 01009KT 19/15 A3022 RMK A01 T01880145  RH  076%=      5-min Rain = 0
KGO1 140935Z 02010KT 19/15 A3022 RMK A01 T01880146  RH  077%=      5-min Rain = 0
KGO1 140936Z 01009KT 19/15 A3022 RMK A01 T01880146  RH  077%=      5-min Rain = 0
KGO1 140937Z 01009KT 19/15 A3023 RMK A01 T01880146  RH  077%=      5-min Rain = 0
KGO1 140938Z 01009KT 19/15 A3023 RMK A01 T01880146  RH  077%=      5-min Rain = 0
KGO1 140939Z 01009KT 19/15 A3023 RMK A01 T01870146  RH  077%=      5-min Rain = 0
KGO1 140940Z 01009KT 19/15 A3023 RMK A01 T01880146  RH  077%=      5-min Rain = 0
KGO1 140941Z 01009KT 19/15 A3022 RMK A01 T01880146  RH  077%=      5-min Rain = 0
KGO1 140942Z 02009KT 19/15 A3022 RMK A01 T01880146  RH  076%=      5-min Rain = 0
KGO1 140943Z 02008KT 19/15 A3022 RMK A01 T01880146  RH  077%=      5-min Rain = 0
KGO1 140944Z 02008KT 19/15 A3022 RMK A01 T01880146  RH  077%=      5-min Rain = 0
KGO1 140945Z 02009KT 19/15 A3022 RMK A01 T01870146  RH  077%=      5-min Rain = 0
KGO1 140946Z 01009KT 19/15 A3022 RMK A01 T01870146  RH  077%=      5-min Rain = 0
KGO1 140947Z 02008KT 19/15 A3022 RMK A01 T01870145  RH  077%=      5-min Rain = 0
KGO1 140948Z 02008KT 19/15 A3022 RMK A01 T01860145  RH  077%=      5-min Rain = 0
KGO1 140949Z 01007KT 19/15 A3022 RMK A01 T01860145  RH  077%=      5-min Rain = 0
KGO1 140950Z 01007KT 19/15 A3022 RMK A01 T01850145  RH  077%=      5-min Rain = 0
KGO1 140951Z 01007KT 19/15 A3022 RMK A01 T01850145  RH  078%=      5-min Rain = 0
KGO1 140952Z 02006KT 18/15 A3022 RMK A01 T01840146  RH  078%=      5-min Rain = 0
KGO1 140953Z 02006KT 18/15 A3022 RMK A01 T01830145  RH  079%=      5-min Rain = 0
KGO1 140954Z 02007KT 18/15 A3022 RMK A01 T01830146  RH  079%=      5-min Rain = 0
KGO1 140955Z 01007KT 18/15 A3022 RMK A01 T01820146  RH  079%=      5-min Rain = 0
KGO1 140956Z 02006KT 18/15 A3022 RMK A01 T01820146  RH  079%=      5-min Rain = 0
KGO1 140957Z 01007KT 18/15 A3022 RMK A01 T01820146  RH  079%=      5-min Rain = 0
KGO1 140958Z 01008KT 18/15 A3022 RMK A01 T01820146  RH  080%=      5-min Rain = 0
KGO1 140959Z 01007KT 18/15 A3022 RMK A01 T01820146  RH  080%=      5-min Rain = 0
KGO1 141000Z 01008KT 18/15 A3022 RMK A01 T01810146  RH  080%=      5-min Rain = 0
KGO1 141001Z 01008KT 18/15 A3022 RMK A01 T01810146  RH  080%=      5-min Rain = 0
KGO1 141002Z 01008KT 18/15 A3022 RMK A01 T01810146  RH  080%=      5-min Rain = 0
KGO1 141003Z 00008KT 18/15 A3022 RMK A01 T01810146  RH  080%=      5-min Rain = 0
KGO1 141004Z 00008KT 18/15 A3022 RMK A01 T01810147  RH  080%=      5-min Rain = 0
KGO1 141005Z 00007KT 18/15 A3022 RMK A01 T01800147  RH  081%=      5-min Rain = 0
KGO1 141006Z 01007KT 18/15 A3022 RMK A01 T01800147  RH  081%=      5-min Rain = 0
KGO1 141007Z 36006KT 18/15 A3022 RMK A01 T01800146  RH  081%=      5-min Rain = 0
KGO1 141008Z 00005KT 18/15 A3023 RMK A01 T01800146  RH  081%=      5-min Rain = 0
KGO1 141009Z 01005KT 18/15 A3023 RMK A01 T01800147  RH  081%=      5-min Rain = 0
KGO1 141010Z 01005KT 18/15 A3023 RMK A01 T01800147  RH  081%=      5-min Rain = 0
KGO1 141011Z 01005KT 18/15 A3023 RMK A01 T01800147  RH  081%=      5-min Rain = 0
KGO1 141012Z 01005KT 18/15 A3023 RMK A01 T01790147  RH  082%=      5-min Rain = 0
KGO1 141013Z 01004KT 18/15 A3023 RMK A01 T01790147  RH  082%=      5-min Rain = 0
KGO1 141014Z 01004KT 18/15 A3023 RMK A01 T01790148  RH  082%=      5-min Rain = 0
KGO1 141015Z 00004KT 18/15 A3023 RMK A01 T01780147  RH  082%=      5-min Rain = 0
KGO1 141016Z 36005KT 18/15 A3023 RMK A01 T01780147  RH  083%=      5-min Rain = 0
KGO1 141017Z 35006KT 18/15 A3023 RMK A01 T01770148  RH  083%=      5-min Rain = 0
KGO1 141018Z 36006KT 18/15 A3024 RMK A01 T01770148  RH  083%=      5-min Rain = 0
KGO1 141019Z 36007KT 18/15 A3024 RMK A01 T01760148  RH  083%=      5-min Rain = 0
KGO1 141020Z 36006KT 18/15 A3024 RMK A01 T01760147  RH  083%=      5-min Rain = 0
KGO1 141021Z 35006KT 18/15 A3024 RMK A01 T01760147  RH  083%=      5-min Rain = 0
KGO1 141022Z 36006KT 18/15 A3024 RMK A01 T01760147  RH  083%=      5-min Rain = 0
KGO1 141023Z 36006KT 18/15 A3024 RMK A01 T01770147  RH  083%=      5-min Rain = 0
KGO1 141024Z 35006KT 18/15 A3024 RMK A01 T01770147  RH  083%=      5-min Rain = 0
KGO1 141025Z 35006KT 18/15 A3024 RMK A01 T01770148  RH  083%=      5-min Rain = 0
KGO1 141026Z 35006KT 18/15 A3024 RMK A01 T01770148  RH  083%=      5-min Rain = 0
KGO1 141027Z 35005KT 18/15 A3024 RMK A01 T01770148  RH  083%=      5-min Rain = 0
KGO1 141028Z 36005KT 18/15 A3024 RMK A01 T01770148  RH  083%=      5-min Rain = 0
KGO1 141029Z 00005KT 18/15 A3024 RMK A01 T01770147  RH  083%=      5-min Rain = 0
KGO1 141030Z 36005KT 18/15 A3024 RMK A01 T01760147  RH  083%=      5-min Rain = 0
KGO1 141031Z 36005KT 18/15 A3024 RMK A01 T01760147  RH  083%=      5-min Rain = 0
KGO1 141032Z 36005KT 18/15 A3024 RMK A01 T01760147  RH  083%=      5-min Rain = 0
KGO1 141033Z 36005KT 18/15 A3024 RMK A01 T01760147  RH  083%=      5-min Rain = 0
KGO1 141034Z 35005KT 18/15 A3024 RMK A01 T01750147  RH  083%=      5-min Rain = 0
KGO1 141035Z 35006KT 18/15 A3024 RMK A01 T01750147  RH  083%=      5-min Rain = 0
KGO1 141036Z 35006KT 18/15 A3024 RMK A01 T01750147  RH  084%=      5-min Rain = 0
KGO1 141037Z 35007KT 18/15 A3024 RMK A01 T01750147  RH  084%=      5-min Rain = 0
KGO1 141038Z 34008KT 18/15 A3025 RMK A01 T01750148  RH  084%=      5-min Rain = 0
KGO1 141039Z 34009KT 17/15 A3025 RMK A01 T01740147  RH  084%=      5-min Rain = 0
KGO1 141040Z 34009KT 17/15 A3025 RMK A01 T01740147  RH  084%=      5-min Rain = 0
KGO1 141041Z 34009KT 18/15 A3025 RMK A01 T01760147  RH  083%=      5-min Rain = 0
KGO1 141042Z 34008KT 18/15 A3025 RMK A01 T01760147  RH  083%=      5-min Rain = 0
KGO1 141043Z 34008KT 18/15 A3025 RMK A01 T01760146  RH  082%=      5-min Rain = 0
KGO1 141044Z 34006KT 18/15 A3024 RMK A01 T01780146  RH  082%=      5-min Rain = 0
KGO1 141045Z 35006KT 18/15 A3024 RMK A01 T01780146  RH  081%=      5-min Rain = 0
KGO1 141046Z 35006KT 18/15 A3024 RMK A01 T01780146  RH  082%=      5-min Rain = 0
KGO1 141047Z 34009KT 18/15 A3025 RMK A01 T01770146  RH  082%=      5-min Rain = 0
KGO1 141048Z 34011KT 18/15 A3025 RMK A01 T01770146  RH  082%=      5-min Rain = 0
KGO1 141049Z 34013KT 18/15 A3025 RMK A01 T01770147  RH  083%=      5-min Rain = 0
KGO1 141050Z 35012KT 18/15 A3025 RMK A01 T01770147  RH  082%=      5-min Rain = 0
KGO1 141051Z 35011KT 18/15 A3025 RMK A01 T01770146  RH  082%=      5-min Rain = 0
KGO1 141052Z 35011KT 18/15 A3025 RMK A01 T01770146  RH  082%=      5-min Rain = 0
KGO1 141053Z 36010KT 18/15 A3025 RMK A01 T01770146  RH  082%=      5-min Rain = 0
KGO1 141054Z 35010KT 18/15 A3026 RMK A01 T01760146  RH  083%=      5-min Rain = 0
KGO1 141055Z 35008KT 18/15 A3026 RMK A01 T01750146  RH  083%=      5-min Rain = 0
KGO1 141056Z 35008KT 18/15 A3026 RMK A01 T01750146  RH  083%=      5-min Rain = 0
KGO1 141057Z 34010KT 18/15 A3026 RMK A01 T01750146  RH  083%=      5-min Rain = 0
KGO1 141058Z 34010KT 18/15 A3026 RMK A01 T01750145  RH  083%=      5-min Rain = 0
KGO1 141059Z 34010KT 18/15 A3026 RMK A01 T01750146  RH  083%=      5-min Rain = 0
KGO1 141100Z 34011KT 18/15 A3026 RMK A01 T01750146  RH  083%=      5-min Rain = 0
KGO1 141101Z 33008KT 18/15 A3025 RMK A01 T01750145  RH  083%=      5-min Rain = 0
KGO1 141102Z 33007KT 18/15 A3025 RMK A01 T01750145  RH  083%=      5-min Rain = 0
KGO1 141103Z 34006KT 18/15 A3025 RMK A01 T01750145  RH  083%=      5-min Rain = 0
KGO1 141104Z 34008KT 18/15 A3025 RMK A01 T01750145  RH  083%=      5-min Rain = 0
KGO1 141105Z 34008KT 18/15 A3025 RMK A01 T01750145  RH  083%=      5-min Rain = 0
KGO1 141106Z 34010KT 17/15 A3025 RMK A01 T01740146  RH  084%=      5-min Rain = 0
KGO1 141107Z 35009KT 17/15 A3024 RMK A01 T01730146  RH  084%=      5-min Rain = 0
KGO1 141108Z 35006KT 17/15 A3024 RMK A01 T01730146  RH  084%=      5-min Rain = 0
KGO1 141109Z 35006KT 17/15 A3024 RMK A01 T01730145  RH  084%=      5-min Rain = 0
KGO1 141110Z 34008KT 17/15 A3024 RMK A01 T01730146  RH  084%=      5-min Rain = 0
KGO1 141111Z 34009KT 17/15 A3024 RMK A01 T01730146  RH  084%=      5-min Rain = 0
KGO1 141112Z 34008KT 17/15 A3024 RMK A01 T01720145  RH  084%=      5-min Rain = 0
KGO1 141113Z 34005KT 17/15 A3024 RMK A01 T01730146  RH  084%=      5-min Rain = 0
KGO1 141114Z 35004KT 17/15 A3023 RMK A01 T01720145  RH  084%=      5-min Rain = 0
KGO1 141115Z 35007KT 17/14 A3023 RMK A01 T01730144  RH  083%=      5-min Rain = 0
KGO1 141116Z 35009KT 17/14 A3024 RMK A01 T01720143  RH  083%=      5-min Rain = 0
KGO1 141117Z 35010KT 17/14 A3024 RMK A01 T01730144  RH  083%=      5-min Rain = 0
KGO1 141118Z 35010KT 17/14 A3025 RMK A01 T01730144  RH  083%=      5-min Rain = 0
KGO1 141119Z 35009KT 17/15 A3025 RMK A01 T01730145  RH  084%=      5-min Rain = 0
KGO1 141120Z 35007KT 17/15 A3025 RMK A01 T01730145  RH  084%=      5-min Rain = 0
KGO1 141121Z 34007KT 17/15 A3024 RMK A01 T01730145  RH  083%=      5-min Rain = 0
KGO1 141122Z 33005KT 17/14 A3024 RMK A01 T01730144  RH  083%=      5-min Rain = 0
KGO1 141123Z 34006KT 17/14 A3024 RMK A01 T01730144  RH  083%=      5-min Rain = 0
KGO1 141124Z 34008KT 17/14 A3025 RMK A01 T01720143  RH  083%=      5-min Rain = 0
KGO1 141125Z 33007KT 17/14 A3025 RMK A01 T01730144  RH  083%=      5-min Rain = 0
KGO1 141126Z 33007KT 17/14 A3025 RMK A01 T01730144  RH  083%=      5-min Rain = 0
KGO1 141127Z 33007KT 17/14 A3025 RMK A01 T01730144  RH  083%=      5-min Rain = 0
KGO1 141128Z 33007KT 17/14 A3025 RMK A01 T01730144  RH  083%=      5-min Rain = 0
KGO1 141129Z 33007KT 17/14 A3025 RMK A01 T01730144  RH  083%=      5-min Rain = 0
KGO1 141130Z 33008KT 17/14 A3025 RMK A01 T01730144  RH  083%=      5-min Rain = 0
KGO1 141131Z 33007KT 17/14 A3025 RMK A01 T01730144  RH  083%=      5-min Rain = 0
KGO1 141132Z 33007KT 17/14 A3025 RMK A01 T01720144  RH  083%=      5-min Rain = 0
KGO1 141133Z 32007KT 17/14 A3025 RMK A01 T01720144  RH  083%=      5-min Rain = 0
KGO1 141134Z 32006KT 17/14 A3025 RMK A01 T01720144  RH  084%=      5-min Rain = 0
KGO1 141135Z 32006KT 17/14 A3025 RMK A01 T01710144  RH  084%=      5-min Rain = 0
KGO1 141136Z 32007KT 17/14 A3025 RMK A01 T01710144  RH  084%=      5-min Rain = 0
KGO1 141137Z 32007KT 17/14 A3025 RMK A01 T01710144  RH  084%=      5-min Rain = 0
KGO1 141138Z 32006KT 17/14 A3025 RMK A01 T01700144  RH  085%=      5-min Rain = 0
KGO1 141139Z 32005KT 17/14 A3025 RMK A01 T01700144  RH  085%=      5-min Rain = 0
KGO1 141140Z 32005KT 17/14 A3025 RMK A01 T01690144  RH  085%=      5-min Rain = 0
KGO1 141141Z 32005KT 17/14 A3025 RMK A01 T01690144  RH  085%=      5-min Rain = 0
KGO1 141142Z 32006KT 17/14 A3025 RMK A01 T01690144  RH  085%=      5-min Rain = 0
KGO1 141143Z 32007KT 17/14 A3025 RMK A01 T01680144  RH  086%=      5-min Rain = 0
KGO1 141144Z 31006KT 17/14 A3025 RMK A01 T01680144  RH  085%=      5-min Rain = 0
KGO1 141145Z 31005KT 17/14 A3024 RMK A01 T01680144  RH  085%=      5-min Rain = 0
KGO1 141146Z 31005KT 17/14 A3024 RMK A01 T01680144  RH  085%=      5-min Rain = 0
KGO1 141147Z 31005KT 17/14 A3024 RMK A01 T01690144  RH  085%=      5-min Rain = 0
KGO1 141148Z 31006KT 17/14 A3025 RMK A01 T01680144  RH  085%=      5-min Rain = 0
KGO1 141149Z 31005KT 17/14 A3025 RMK A01 T01690144  RH  085%=      5-min Rain = 0
KGO1 141150Z 32005KT 17/14 A3025 RMK A01 T01680144  RH  086%=      5-min Rain = 0
KGO1 141151Z 32005KT 17/14 A3025 RMK A01 T01680144  RH  086%=      5-min Rain = 0
KGO1 141152Z 32005KT 17/14 A3025 RMK A01 T01690144  RH  086%=      5-min Rain = 0
KGO1 141153Z 31004KT 17/14 A3025 RMK A01 T01680144  RH  086%=      5-min Rain = 0
KGO1 141154Z 31004KT 17/14 A3025 RMK A01 T01680144  RH  086%=      5-min Rain = 0
KGO1 141155Z 31003KT 17/14 A3025 RMK A01 T01680144  RH  086%=      5-min Rain = 0
KGO1 141156Z 30003KT 17/15 A3025 RMK A01 T01680145  RH  086%=      5-min Rain = 0
KGO1 141157Z 29004KT 17/15 A3025 RMK A01 T01680145  RH  086%=      5-min Rain = 0
KGO1 141158Z 29004KT 17/15 A3025 RMK A01 T01680146  RH  087%=      5-min Rain = 0
KGO1 141159Z 29004KT 17/15 A3025 RMK A01 T01670146  RH  087%=      5-min Rain = 0
KGO1 141200Z 28004KT 17/15 A3025 RMK A01 T01670146  RH  088%=      5-min Rain = 0
KGO1 141201Z 28005KT 17/15 A3025 RMK A01 T01660147  RH  088%=      5-min Rain = 0
KGO1 141202Z 28005KT 17/15 A3025 RMK A01 T01660147  RH  089%=      5-min Rain = 0
KGO1 141203Z 29005KT 17/15 A3025 RMK A01 T01660147  RH  089%=      5-min Rain = 0
KGO1 141204Z 30005KT 17/15 A3025 RMK A01 T01660147  RH  089%=      5-min Rain = 0
KGO1 141205Z 30006KT 17/15 A3025 RMK A01 T01660147  RH  088%=      5-min Rain = 0
KGO1 141206Z 30006KT 17/15 A3025 RMK A01 T01660147  RH  088%=      5-min Rain = 0
KGO1 141207Z 31007KT 17/15 A3025 RMK A01 T01660147  RH  088%=      5-min Rain = 0
KGO1 141208Z 31007KT 17/15 A3025 RMK A01 T01660147  RH  089%=      5-min Rain = 0
KGO1 141209Z 31007KT 17/15 A3025 RMK A01 T01660147  RH  088%=      5-min Rain = 0
KGO1 141210Z 31007KT 17/15 A3025 RMK A01 T01670146  RH  088%=      5-min Rain = 0
KGO1 141211Z 31007KT 17/15 A3025 RMK A01 T01680146  RH  087%=      5-min Rain = 0
KGO1 141212Z 31008KT 17/15 A3025 RMK A01 T01690146  RH  086%=      5-min Rain = 0
KGO1 141213Z 31008KT 17/15 A3025 RMK A01 T01700146  RH  085%=      5-min Rain = 0
KGO1 141214Z 31008KT 17/15 A3025 RMK A01 T01720146  RH  085%=      5-min Rain = 0
KGO1 141215Z 31008KT 17/15 A3025 RMK A01 T01730146  RH  084%=      5-min Rain = 0
KGO1 141216Z 31007KT 17/15 A3025 RMK A01 T01740145  RH  083%=      5-min Rain = 0
KGO1 141217Z 31008KT 17/15 A3025 RMK A01 T01740146  RH  083%=      5-min Rain = 0
KGO1 141218Z 31008KT 17/15 A3025 RMK A01 T01740146  RH  083%=      5-min Rain = 0
KGO1 141219Z 32008KT 18/15 A3025 RMK A01 T01750146  RH  083%=      5-min Rain = 0
KGO1 141220Z 32008KT 18/15 A3025 RMK A01 T01750146  RH  083%=      5-min Rain = 0
KGO1 141221Z 31007KT 18/15 A3025 RMK A01 T01750146  RH  083%=      5-min Rain = 0
KGO1 141222Z 32007KT 18/15 A3025 RMK A01 T01750147  RH  084%=      5-min Rain = 0
KGO1 141223Z 32007KT 18/15 A3025 RMK A01 T01750146  RH  083%=      5-min Rain = 0
KGO1 141224Z 32006KT 18/15 A3025 RMK A01 T01750146  RH  083%=      5-min Rain = 0
KGO1 141225Z 32006KT 18/15 A3025 RMK A01 T01760146  RH  083%=      5-min Rain = 0
KGO1 141226Z 33006KT 18/15 A3024 RMK A01 T01760146  RH  083%=      5-min Rain = 0
KGO1 141227Z 33005KT 18/15 A3024 RMK A01 T01760146  RH  082%=      5-min Rain = 0
KGO1 141228Z 33004KT 18/15 A3024 RMK A01 T01770145  RH  082%=      5-min Rain = 0
KGO1 141229Z 33003KT 18/14 A3024 RMK A01 T01780144  RH  081%=      5-min Rain = 0
KGO1 141230Z 33003KT 18/15 A3024 RMK A01 T01780145  RH  081%=      5-min Rain = 0
KGO1 141231Z 34003KT 18/15 A3024 RMK A01 T01790145  RH  081%=      5-min Rain = 0
KGO1 141232Z 35002KT 18/15 A3024 RMK A01 T01790145  RH  081%=      5-min Rain = 0
KGO1 141233Z 34002KT 18/15 A3024 RMK A01 T01790145  RH  081%=      5-min Rain = 0
KGO1 141234Z 33002KT 18/15 A3024 RMK A01 T01790146  RH  081%=      5-min Rain = 0
KGO1 141235Z 32003KT 18/15 A3024 RMK A01 T01790147  RH  082%=      5-min Rain = 0
KGO1 141236Z 31003KT 18/15 A3024 RMK A01 T01790147  RH  082%=      5-min Rain = 0
KGO1 141237Z 32002KT 18/15 A3024 RMK A01 T01790148  RH  082%=      5-min Rain = 0
KGO1 141238Z 32001KT 18/15 A3024 RMK A01 T01790149  RH  082%=      5-min Rain = 0
KGO1 141239Z 31001KT 18/15 A3025 RMK A01 T01790149  RH  083%=      5-min Rain = 0
KGO1 141240Z 31001KT 18/15 A3025 RMK A01 T01790149  RH  083%=      5-min Rain = 0
KGO1 141241Z 30002KT 18/15 A3025 RMK A01 T01790149  RH  083%=      5-min Rain = 0
KGO1 141242Z 29003KT 18/15 A3025 RMK A01 T01790151  RH  084%=      5-min Rain = 0
KGO1 141243Z 29004KT 18/15 A3025 RMK A01 T01800152  RH  084%=      5-min Rain = 0
KGO1 141244Z 29004KT 18/15 A3025 RMK A01 T01800153  RH  084%=      5-min Rain = 0
KGO1 141245Z 30004KT 18/15 A3025 RMK A01 T01800153  RH  084%=      5-min Rain = 0
KGO1 141246Z 30003KT 18/15 A3025 RMK A01 T01810153  RH  084%=      5-min Rain = 0
KGO1 141247Z 30003KT 18/15 A3025 RMK A01 T01810152  RH  083%=      5-min Rain = 0
KGO1 141248Z 30004KT 18/15 A3025 RMK A01 T01810152  RH  083%=      5-min Rain = 0
KGO1 141249Z 30005KT 18/15 A3025 RMK A01 T01810152  RH  083%=      5-min Rain = 0
KGO1 141250Z 30005KT 18/15 A3026 RMK A01 T01810153  RH  084%=      5-min Rain = 0
KGO1 141251Z 30005KT 18/15 A3026 RMK A01 T01820154  RH  084%=      5-min Rain = 0
KGO1 141252Z 30005KT 18/15 A3026 RMK A01 T01820152  RH  083%=      5-min Rain = 0
KGO1 141253Z 30004KT 18/15 A3025 RMK A01 T01820151  RH  082%=      5-min Rain = 0
KGO1 141254Z 31004KT 18/15 A3025 RMK A01 T01830151  RH  082%=      5-min Rain = 0
KGO1 141255Z 32004KT 18/15 A3025 RMK A01 T01840152  RH  082%=      5-min Rain = 0
KGO1 141256Z 33007KT 18/15 A3026 RMK A01 T01840153  RH  082%=      5-min Rain = 0
KGO1 141257Z 34007KT 19/15 A3025 RMK A01 T01850146  RH  078%=      5-min Rain = 0
KGO1 141258Z 33006KT 19/14 A3025 RMK A01 T01880143  RH  075%=      5-min Rain = 0
KGO1 141259Z 33006KT 19/14 A3025 RMK A01 T01910142  RH  073%=      5-min Rain = 0
KGO1 141300Z 32006KT 19/14 A3026 RMK A01 T01930144  RH  073%=      5-min Rain = 0
KGO1 141301Z 30005KT 19/15 A3025 RMK A01 T01930146  RH  074%=      5-min Rain = 0
KGO1 141302Z 28006KT 19/15 A3025 RMK A01 T01930148  RH  076%=      5-min Rain = 0
KGO1 141303Z 29006KT 19/15 A3025 RMK A01 T01910149  RH  076%=      5-min Rain = 0
KGO1 141304Z 29006KT 19/15 A3025 RMK A01 T01900149  RH  077%=      5-min Rain = 0
KGO1 141305Z 29005KT 19/15 A3025 RMK A01 T01890149  RH  078%=      5-min Rain = 0
KGO1 141306Z 29006KT 19/15 A3026 RMK A01 T01880150  RH  079%=      5-min Rain = 0
KGO1 141307Z 29006KT 19/15 A3026 RMK A01 T01870152  RH  080%=      5-min Rain = 0
KGO1 141308Z 30005KT 19/15 A3026 RMK A01 T01870152  RH  080%=      5-min Rain = 0
KGO1 141309Z 30005KT 19/15 A3026 RMK A01 T01860153  RH  081%=      5-min Rain = 0
KGO1 141310Z 30006KT 19/15 A3026 RMK A01 T01860154  RH  081%=      5-min Rain = 0
KGO1 141311Z 31006KT 19/15 A3026 RMK A01 T01860152  RH  081%=      5-min Rain = 0
KGO1 141312Z 30005KT 19/15 A3026 RMK A01 T01870151  RH  080%=      5-min Rain = 0
KGO1 141313Z 30005KT 19/15 A3026 RMK A01 T01880152  RH  080%=      5-min Rain = 0
KGO1 141314Z 30004KT 19/15 A3026 RMK A01 T01880152  RH  080%=      5-min Rain = 0
KGO1 141315Z 29004KT 19/15 A3026 RMK A01 T01890152  RH  079%=      5-min Rain = 0
KGO1 141316Z 29004KT 19/15 A3026 RMK A01 T01890153  RH  080%=      5-min Rain = 0
KGO1 141317Z 28004KT 19/15 A3026 RMK A01 T01900153  RH  079%=      5-min Rain = 0
KGO1 141318Z 28004KT 19/15 A3026 RMK A01 T01900153  RH  079%=      5-min Rain = 0
KGO1 141319Z 28005KT 19/15 A3026 RMK A01 T01910154  RH  079%=      5-min Rain = 0
KGO1 141320Z 28005KT 19/15 A3026 RMK A01 T01910154  RH  079%=      5-min Rain = 0
KGO1 141321Z 28005KT 19/16 A3026 RMK A01 T01920155  RH  079%=      5-min Rain = 0
KGO1 141322Z 28004KT 19/15 A3026 RMK A01 T01920154  RH  078%=      5-min Rain = 0
KGO1 141323Z 28004KT 19/16 A3026 RMK A01 T01930155  RH  078%=      5-min Rain = 0
KGO1 141324Z 28004KT 19/16 A3026 RMK A01 T01940155  RH  078%=      5-min Rain = 0
KGO1 141325Z 27003KT 19/16 A3026 RMK A01 T01940155  RH  078%=      5-min Rain = 0
KGO1 141326Z 27004KT 20/16 A3026 RMK A01 T01950155  RH  078%=      5-min Rain = 0
KGO1 141327Z 27003KT 20/16 A3026 RMK A01 T01960155  RH  078%=      5-min Rain = 0
KGO1 141328Z 27003KT 20/15 A3026 RMK A01 T01960154  RH  076%=      5-min Rain = 0
KGO1 141329Z 27002KT 20/15 A3026 RMK A01 T01970154  RH  076%=      5-min Rain = 0
KGO1 141330Z 27002KT 20/16 A3026 RMK A01 T01970156  RH  077%=      5-min Rain = 0
KGO1 141331Z 27002KT 20/16 A3026 RMK A01 T01980157  RH  077%=      5-min Rain = 0
KGO1 141332Z 27002KT 20/16 A3026 RMK A01 T01990157  RH  077%=      5-min Rain = 0
KGO1 141333Z 27002KT 20/16 A3026 RMK A01 T01990157  RH  077%=      5-min Rain = 0
KGO1 141334Z 26001KT 20/16 A3026 RMK A01 T02000158  RH  077%=      5-min Rain = 0
KGO1 141335Z 25001KT 20/16 A3026 RMK A01 T02000158  RH  077%=      5-min Rain = 0
KGO1 141336Z 25002KT 20/16 A3026 RMK A01 T02010158  RH  076%=      5-min Rain = 0
KGO1 141337Z 25002KT 20/16 A3026 RMK A01 T02010159  RH  076%=      5-min Rain = 0
KGO1 141338Z 26003KT 20/16 A3026 RMK A01 T02020157  RH  075%=      5-min Rain = 0
KGO1 141339Z 28002KT 20/16 A3026 RMK A01 T02020155  RH  074%=      5-min Rain = 0
KGO1 141340Z 29003KT 20/16 A3026 RMK A01 T02030157  RH  074%=      5-min Rain = 0
KGO1 141341Z 29003KT 20/16 A3026 RMK A01 T02040158  RH  074%=      5-min Rain = 0
KGO1 141342Z 30003KT 21/16 A3026 RMK A01 T02050156  RH  073%=      5-min Rain = 0
KGO1 141343Z 30003KT 21/16 A3025 RMK A01 T02060157  RH  073%=      5-min Rain = 0
KGO1 141344Z 30003KT 21/16 A3025 RMK A01 T02070156  RH  073%=      5-min Rain = 0
KGO1 141345Z 31003KT 21/16 A3025 RMK A01 T02070156  RH  073%=      5-min Rain = 0
KGO1 141346Z 31003KT 21/15 A3025 RMK A01 T02080154  RH  071%=      5-min Rain = 0
KGO1 141347Z 31004KT 21/16 A3025 RMK A01 T02090156  RH  072%=      5-min Rain = 0
KGO1 141348Z 31003KT 21/16 A3025 RMK A01 T02100156  RH  071%=      5-min Rain = 0
KGO1 141349Z 31003KT 21/16 A3025 RMK A01 T02100156  RH  071%=      5-min Rain = 0
KGO1 141350Z 30003KT 21/15 A3025 RMK A01 T02110153  RH  070%=      5-min Rain = 0
KGO1 141351Z 31004KT 21/15 A3025 RMK A01 T02110153  RH  069%=      5-min Rain = 0
KGO1 141352Z 32003KT 21/15 A3024 RMK A01 T02120154  RH  069%=      5-min Rain = 0
KGO1 141353Z 33004KT 21/15 A3024 RMK A01 T02120149  RH  067%=      5-min Rain = 0
KGO1 141354Z 34003KT 21/15 A3024 RMK A01 T02130149  RH  067%=      5-min Rain = 0
KGO1 141355Z 35002KT 21/15 A3024 RMK A01 T02130151  RH  068%=      5-min Rain = 0
KGO1 141356Z 35001KT 21/15 A3024 RMK A01 T02130152  RH  068%=      5-min Rain = 0
KGO1 141357Z 32001KT 21/15 A3024 RMK A01 T02130150  RH  067%=      5-min Rain = 0
KGO1 141358Z 00000KT 21/15 A3024 RMK A01 T02140151  RH  067%=      5-min Rain = 0
KGO1 141359Z 00000KT 21/15 A3024 RMK A01 T02140150  RH  067%=      5-min Rain = 0
KGO1 141400Z 00000KT 21/15 A3024 RMK A01 T02140150  RH  067%=      5-min Rain = 0
KGO1 141401Z 21000KT 22/15 A3024 RMK A01 T02150153  RH  068%=      5-min Rain = 0
KGO1 141402Z 00000KT 22/15 A3024 RMK A01 T02150152  RH  067%=      5-min Rain = 0
KGO1 141403Z 16000KT 22/15 A3024 RMK A01 T02150150  RH  066%=      5-min Rain = 0
KGO1 141404Z 15002KT 22/15 A3024 RMK A01 T02160152  RH  067%=      5-min Rain = 0
KGO1 141405Z 14003KT 22/15 A3024 RMK A01 T02160154  RH  068%=      5-min Rain = 0
KGO1 141406Z 12003KT 22/15 A3024 RMK A01 T02160154  RH  068%=      5-min Rain = 0
KGO1 141407Z 11004KT 22/15 A3024 RMK A01 T02160153  RH  067%=      5-min Rain = 0
KGO1 141408Z 11005KT 22/16 A3024 RMK A01 T02160158  RH  069%=      5-min Rain = 0
KGO1 141409Z 12006KT 22/16 A3024 RMK A01 T02160162  RH  071%=      5-min Rain = 0
KGO1 141410Z 12006KT 22/16 A3025 RMK A01 T02150164  RH  073%=      5-min Rain = 0
KGO1 141411Z 11005KT 22/17 A3025 RMK A01 T02150167  RH  074%=      5-min Rain = 0
KGO1 141412Z 11004KT 22/17 A3025 RMK A01 T02150169  RH  075%=      5-min Rain = 0
KGO1 141413Z 12003KT 21/17 A3025 RMK A01 T02140169  RH  075%=      5-min Rain = 0
KGO1 141414Z 12003KT 21/17 A3025 RMK A01 T02140170  RH  076%=      5-min Rain = 0
KGO1 141415Z 14003KT 21/17 A3025 RMK A01 T02140169  RH  075%=      5-min Rain = 0
KGO1 141416Z 17003KT 21/17 A3026 RMK A01 T02140167  RH  075%=      5-min Rain = 0
KGO1 141417Z 17003KT 21/17 A3026 RMK A01 T02140165  RH  074%=      5-min Rain = 0
KGO1 141418Z 16002KT 21/16 A3026 RMK A01 T02140161  RH  072%=      5-min Rain = 0
KGO1 141419Z 15002KT 22/16 A3026 RMK A01 T02150160  RH  071%=      5-min Rain = 0
KGO1 141420Z 14001KT 22/16 A3026 RMK A01 T02150160  RH  071%=      5-min Rain = 0
KGO1 141421Z 15000KT 22/16 A3026 RMK A01 T02160158  RH  069%=      5-min Rain = 0
KGO1 141422Z 16002KT 22/16 A3026 RMK A01 T02160158  RH  069%=      5-min Rain = 0
KGO1 141423Z 15003KT 22/16 A3026 RMK A01 T02170157  RH  069%=      5-min Rain = 0
KGO1 141424Z 15002KT 22/16 A3026 RMK A01 T02170155  RH  068%=      5-min Rain = 0
KGO1 141425Z 13001KT 22/15 A3026 RMK A01 T02160154  RH  067%=      5-min Rain = 0
KGO1 141426Z 08001KT 22/16 A3026 RMK A01 T02160157  RH  069%=      5-min Rain = 0
KGO1 141427Z 08000KT 22/16 A3026 RMK A01 T02160155  RH  068%=      5-min Rain = 0
KGO1 141428Z 09000KT 22/16 A3026 RMK A01 T02170156  RH  068%=      5-min Rain = 0
KGO1 141429Z 15002KT 22/16 A3026 RMK A01 T02160158  RH  069%=      5-min Rain = 0
KGO1 141430Z 15003KT 22/16 A3026 RMK A01 T02160157  RH  069%=      5-min Rain = 0
KGO1 141431Z 14003KT 22/15 A3026 RMK A01 T02160153  RH  067%=      5-min Rain = 0
KGO1 141432Z 14003KT 22/15 A3026 RMK A01 T02160153  RH  067%=      5-min Rain = 0
KGO1 141433Z 13004KT 22/15 A3026 RMK A01 T02160153  RH  067%=      5-min Rain = 0
KGO1 141434Z 13004KT 22/15 A3026 RMK A01 T02160153  RH  067%=      5-min Rain = 0
KGO1 141435Z 13005KT 22/16 A3026 RMK A01 T02160155  RH  068%=      5-min Rain = 0
KGO1 141436Z 13004KT 22/15 A3026 RMK A01 T02160154  RH  068%=      5-min Rain = 0
KGO1 141437Z 13003KT 22/15 A3026 RMK A01 T02160154  RH  068%=      5-min Rain = 0
KGO1 141438Z 13002KT 22/16 A3026 RMK A01 T02160155  RH  068%=      5-min Rain = 0
KGO1 141439Z 15003KT 22/16 A3026 RMK A01 T02150155  RH  068%=      5-min Rain = 0
KGO1 141440Z 15004KT 22/15 A3025 RMK A01 T02160152  RH  067%=      5-min Rain = 0
KGO1 141441Z 15003KT 22/15 A3025 RMK A01 T02150153  RH  067%=      5-min Rain = 0
KGO1 141442Z 15003KT 22/15 A3025 RMK A01 T02160151  RH  067%=      5-min Rain = 0
KGO1 141443Z 13003KT 22/15 A3025 RMK A01 T02150152  RH  067%=      5-min Rain = 0
KGO1 141444Z 12004KT 22/15 A3025 RMK A01 T02150152  RH  067%=      5-min Rain = 0
KGO1 141445Z 11004KT 22/15 A3026 RMK A01 T02160152  RH  067%=      5-min Rain = 0
KGO1 141446Z 10003KT 22/15 A3026 RMK A01 T02160151  RH  067%=      5-min Rain = 0
KGO1 141447Z 10002KT 22/15 A3026 RMK A01 T02170154  RH  067%=      5-min Rain = 0
KGO1 141448Z 14002KT 22/15 A3025 RMK A01 T02170152  RH  067%=      5-min Rain = 0
KGO1 141449Z 18002KT 22/15 A3025 RMK A01 T02170150  RH  066%=      5-min Rain = 0
KGO1 141450Z 19003KT 22/15 A3025 RMK A01 T02170152  RH  067%=      5-min Rain = 0
KGO1 141451Z 17003KT 22/15 A3025 RMK A01 T02170150  RH  066%=      5-min Rain = 0
KGO1 141452Z 15002KT 22/15 A3025 RMK A01 T02170150  RH  066%=      5-min Rain = 0
KGO1 141453Z 14003KT 22/15 A3025 RMK A01 T02180151  RH  066%=      5-min Rain = 0
KGO1 141454Z 15003KT 22/15 A3025 RMK A01 T02190149  RH  065%=      5-min Rain = 0
KGO1 141455Z 15003KT 22/15 A3025 RMK A01 T02200152  RH  065%=      5-min Rain = 0
KGO1 141456Z 17003KT 22/15 A3025 RMK A01 T02210149  RH  064%=      5-min Rain = 0
KGO1 141457Z 20003KT 22/15 A3025 RMK A01 T02220150  RH  064%=      5-min Rain = 0
KGO1 141458Z 21003KT 22/15 A3025 RMK A01 T02220151  RH  064%=      5-min Rain = 0
KGO1 141459Z 21004KT 22/15 A3025 RMK A01 T02220151  RH  064%=      5-min Rain = 0
KGO1 141500Z 21004KT 22/15 A3025 RMK A01 T02230150  RH  063%=      5-min Rain = 0
KGO1 141501Z 23003KT 22/15 A3025 RMK A01 T02240153  RH  064%=      5-min Rain = 0
KGO1 141502Z 21003KT 23/15 A3024 RMK A01 T02250153  RH  064%=      5-min Rain = 0
KGO1 141503Z 18002KT 23/15 A3024 RMK A01 T02250151  RH  063%=      5-min Rain = 0
KGO1 141504Z 14002KT 23/15 A3024 RMK A01 T02260151  RH  063%=      5-min Rain = 0
KGO1 141505Z 12003KT 23/15 A3024 RMK A01 T02260151  RH  063%=      5-min Rain = 0
KGO1 141506Z 11004KT 23/15 A3023 RMK A01 T02270152  RH  063%=      5-min Rain = 0
KGO1 141507Z 10005KT 23/15 A3023 RMK A01 T02280153  RH  063%=      5-min Rain = 0
KGO1 141508Z 10007KT 23/16 A3023 RMK A01 T02290158  RH  065%=      5-min Rain = 0
KGO1 141509Z 11009KT 23/16 A3023 RMK A01 T02300157  RH  064%=      5-min Rain = 0
KGO1 141510Z 12009KT 23/15 A3023 RMK A01 T02300154  RH  062%=      5-min Rain = 0
KGO1 141511Z 11007KT 23/15 A3023 RMK A01 T02300148  RH  060%=      5-min Rain = 0
KGO1 141512Z 13005KT 23/15 A3023 RMK A01 T02300149  RH  060%=      5-min Rain = 0
KGO1 141513Z 14004KT 23/15 A3023 RMK A01 T02300151  RH  061%=      5-min Rain = 0
KGO1 141514Z 15005KT 23/15 A3024 RMK A01 T02300151  RH  061%=      5-min Rain = 0
KGO1 141515Z 15008KT 23/15 A3025 RMK A01 T02300150  RH  061%=      5-min Rain = 0
KGO1 141516Z 17007KT 23/15 A3025 RMK A01 T02290147  RH  060%=      5-min Rain = 0
KGO1 141517Z 19005KT 23/15 A3026 RMK A01 T02260145  RH  060%=      5-min Rain = 0
KGO1 141518Z 19005KT 23/15 A3026 RMK A01 T02250148  RH  062%=      5-min Rain = 0
KGO1 141519Z 19007KT 23/15 A3026 RMK A01 T02250147  RH  061%=      5-min Rain = 0
KGO1 141520Z 19005KT 23/15 A3026 RMK A01 T02250146  RH  061%=      5-min Rain = 0
KGO1 141521Z 19004KT 23/15 A3026 RMK A01 T02250145  RH  061%=      5-min Rain = 0
KGO1 141522Z 15004KT 22/15 A3025 RMK A01 T02240147  RH  061%=      5-min Rain = 0
KGO1 141523Z 11005KT 22/15 A3025 RMK A01 T02240148  RH  062%=      5-min Rain = 0
KGO1 141524Z 09005KT 23/15 A3025 RMK A01 T02250149  RH  062%=      5-min Rain = 0
KGO1 141525Z 09005KT 23/15 A3026 RMK A01 T02250150  RH  062%=      5-min Rain = 0
KGO1 141526Z 11004KT 23/15 A3027 RMK A01 T02250152  RH  063%=      5-min Rain = 0
KGO1 141527Z 15004KT 23/15 A3027 RMK A01 T02250153  RH  064%=      5-min Rain = 0
KGO1 141528Z 20007KT 23/15 A3027 RMK A01 T02250152  RH  063%=      5-min Rain = 0
KGO1 141529Z 21008KT 23/15 A3027 RMK A01 T02250150  RH  063%=      5-min Rain = 0
KGO1 141530Z 21008KT 23/15 A3027 RMK A01 T02250151  RH  063%=      5-min Rain = 0
KGO1 141531Z 21008KT 23/15 A3027 RMK A01 T02250149  RH  062%=      5-min Rain = 0
KGO1 141532Z 21007KT 23/15 A3027 RMK A01 T02250149  RH  062%=      5-min Rain = 0
KGO1 141533Z 21006KT 23/15 A3027 RMK A01 T02250147  RH  061%=      5-min Rain = 0
KGO1 141534Z 20004KT 23/15 A3027 RMK A01 T02250145  RH  061%=      5-min Rain = 0
KGO1 141535Z 18000KT 23/14 A3027 RMK A01 T02250143  RH  060%=      5-min Rain = 0
KGO1 141536Z 02002KT 23/14 A3027 RMK A01 T02250143  RH  060%=      5-min Rain = 0
KGO1 141537Z 01004KT 23/14 A3028 RMK A01 T02250144  RH  060%=      5-min Rain = 0
KGO1 141538Z 02005KT 23/15 A3028 RMK A01 T02260146  RH  060%=      5-min Rain = 0
KGO1 141539Z 02004KT 23/15 A3028 RMK A01 T02290148  RH  061%=      5-min Rain = 0
KGO1 141540Z 00002KT 23/15 A3028 RMK A01 T02310148  RH  060%=      5-min Rain = 0
KGO1 141541Z 20001KT 23/15 A3028 RMK A01 T02320146  RH  059%=      5-min Rain = 0
KGO1 141542Z 18002KT 23/15 A3027 RMK A01 T02320146  RH  058%=      5-min Rain = 0
KGO1 141543Z 21004KT 23/15 A3027 RMK A01 T02330149  RH  059%=      5-min Rain = 0
KGO1 141544Z 24004KT 24/15 A3028 RMK A01 T02350150  RH  059%=      5-min Rain = 0
KGO1 141545Z 27004KT 24/15 A3028 RMK A01 T02360149  RH  058%=      5-min Rain = 0
KGO1 141546Z 26004KT 24/15 A3028 RMK A01 T02360147  RH  057%=      5-min Rain = 0
KGO1 141547Z 27004KT 24/15 A3028 RMK A01 T02360146  RH  057%=      5-min Rain = 0
KGO1 141548Z 26004KT 23/15 A3028 RMK A01 T02340145  RH  057%=      5-min Rain = 0
KGO1 141549Z 28003KT 23/15 A3028 RMK A01 T02330145  RH  058%=      5-min Rain = 0
KGO1 141550Z 28003KT 23/15 A3028 RMK A01 T02330147  RH  058%=      5-min Rain = 0
KGO1 141551Z 29004KT 24/15 A3027 RMK A01 T02350148  RH  058%=      5-min Rain = 0
KGO1 141552Z 30003KT 24/15 A3027 RMK A01 T02370148  RH  057%=      5-min Rain = 0
KGO1 141553Z 34003KT 24/15 A3027 RMK A01 T02380150  RH  058%=      5-min Rain = 0
KGO1 141554Z 35004KT 24/15 A3027 RMK A01 T02400150  RH  057%=      5-min Rain = 0
KGO1 141555Z 35006KT 24/15 A3028 RMK A01 T02430153  RH  057%=      5-min Rain = 0
KGO1 141556Z 35005KT 24/15 A3028 RMK A01 T02440153  RH  057%=      5-min Rain = 0
KGO1 141557Z 35005KT 25/15 A3028 RMK A01 T02450152  RH  056%=      5-min Rain = 0
KGO1 141558Z 32002KT 25/16 A3028 RMK A01 T02450156  RH  057%=      5-min Rain = 0
KGO1 141559Z 32004KT 25/16 A3028 RMK A01 T02480155  RH  056%=      5-min Rain = 0
KGO1 141600Z 28003KT 25/15 A3028 RMK A01 T02500154  RH  055%=      5-min Rain = 0
KGO1 141601Z 27004KT 25/15 A3028 RMK A01 T02510153  RH  055%=      5-min Rain = 0
KGO1 141602Z 27006KT 25/16 A3028 RMK A01 T02510155  RH  055%=      5-min Rain = 0
KGO1 141603Z 28007KT 25/16 A3028 RMK A01 T02520156  RH  055%=      5-min Rain = 0
KGO1 141604Z 28006KT 25/16 A3028 RMK A01 T02540155  RH  054%=      5-min Rain = 0
KGO1 141605Z 27006KT 25/16 A3028 RMK A01 T02540156  RH  054%=      5-min Rain = 0
KGO1 141606Z 28005KT 25/15 A3028 RMK A01 T02540154  RH  054%=      5-min Rain = 0
KGO1 141607Z 29003KT 25/15 A3027 RMK A01 T02530151  RH  053%=      5-min Rain = 0
KGO1 141608Z 26003KT 25/15 A3027 RMK A01 T02500151  RH  054%=      5-min Rain = 0
KGO1 141609Z 28003KT 25/15 A3027 RMK A01 T02480150  RH  054%=      5-min Rain = 0
KGO1 141610Z 32004KT 25/15 A3027 RMK A01 T02460149  RH  055%=      5-min Rain = 0
KGO1 141611Z 32002KT 25/15 A3027 RMK A01 T02460150  RH  055%=      5-min Rain = 0
KGO1 141612Z 03003KT 25/15 A3026 RMK A01 T02480149  RH  054%=      5-min Rain = 0
KGO1 141613Z 03009G17KT 25/15 A3026 RMK A01 T02490150  RH  054%=      5-min Rain = 0
KGO1 141614Z 03015KT 25/15 A3026 RMK A01 T02500149  RH  053%=      5-min Rain = 0
KGO1 141615Z 01016KT 25/15 A3026 RMK A01 T02540149  RH  052%=      5-min Rain = 0
KGO1 141616Z 01015KT 26/15 A3026 RMK A01 T02570150  RH  051%=      5-min Rain = 0
KGO1 141617Z 02016G23KT 26/15 A3026 RMK A01 T02630152  RH  050%=      5-min Rain = 0
KGO1 141618Z 02022KT 27/15 A3026 RMK A01 T02650148  RH  048%=      5-min Rain = 0
KGO1 141619Z 01016G21KT 26/15 A3025 RMK A01 T02630146  RH  049%=      5-min Rain = 0
KGO1 141620Z 02016G21KT 26/15 A3026 RMK A01 T02620147  RH  049%=      5-min Rain = 0
KGO1 141621Z 02018G23KT 27/15 A3026 RMK A01 T02650147  RH  048%=      5-min Rain = 0
KGO1 141622Z 01018G23KT 27/15 A3026 RMK A01 T02680148  RH  048%=      5-min Rain = 0
KGO1 141623Z 01019KT 27/15 A3027 RMK A01 T02720145  RH  046%=      5-min Rain = 0
KGO1 141624Z 01020KT 27/14 A3027 RMK A01 T02720143  RH  045%=      5-min Rain = 0
KGO1 141625Z 01020G26KT 27/14 A3027 RMK A01 T02690143  RH  046%=      5-min Rain = 0
KGO1 141626Z 02018KT 27/14 A3027 RMK A01 T02650142  RH  046%=      5-min Rain = 0
KGO1 141627Z 02017KT 26/14 A3027 RMK A01 T02620141  RH  047%=      5-min Rain = 0
KGO1 141628Z 02015KT 26/14 A3027 RMK A01 T02600141  RH  048%=      5-min Rain = 0
KGO1 141629Z 03018KT 26/14 A3027 RMK A01 T02590142  RH  048%=      5-min Rain = 0
KGO1 141630Z 03014KT 26/14 A3027 RMK A01 T02580142  RH  049%=      5-min Rain = 0
KGO1 141631Z 03012KT 26/14 A3027 RMK A01 T02570143  RH  049%=      5-min Rain = 0
KGO1 141632Z 02011KT 26/15 A3027 RMK A01 T02560146  RH  051%=      5-min Rain = 0
KGO1 141633Z 01012KT 26/15 A3027 RMK A01 T02630152  RH  050%=      5-min Rain = 0
KGO1 141634Z 02014KT 27/15 A3027 RMK A01 T02690151  RH  048%=      5-min Rain = 0
KGO1 141635Z 02016KT 27/15 A3027 RMK A01 T02680149  RH  048%=      5-min Rain = 0
KGO1 141636Z 01013G18KT 26/15 A3027 RMK A01 T02630146  RH  048%=      5-min Rain = 0
KGO1 141637Z 01015G20KT 26/15 A3027 RMK A01 T02610147  RH  049%=      5-min Rain = 0
KGO1 141638Z 02017KT 26/14 A3027 RMK A01 T02590143  RH  049%=      5-min Rain = 0
KGO1 141639Z 02014KT 26/14 A3027 RMK A01 T02560144  RH  050%=      5-min Rain = 0
KGO1 141640Z 02014KT 25/14 A3027 RMK A01 T02540142  RH  050%=      5-min Rain = 0
KGO1 141641Z 02012KT 25/14 A3027 RMK A01 T02520144  RH  051%=      5-min Rain = 0
KGO1 141642Z 03014KT 25/15 A3026 RMK A01 T02530146  RH  051%=      5-min Rain = 0
KGO1 141643Z 01015KT 26/15 A3026 RMK A01 T02570148  RH  051%=      5-min Rain = 0
KGO1 141644Z 01013G18KT 26/15 A3026 RMK A01 T02610150  RH  050%=      5-min Rain = 0
KGO1 141645Z 01015KT 26/15 A3027 RMK A01 T02630150  RH  050%=      5-min Rain = 0
KGO1 141646Z 01013KT 26/15 A3027 RMK A01 T02640148  RH  049%=      5-min Rain = 0
KGO1 141647Z 01015KT 26/15 A3027 RMK A01 T02620148  RH  049%=      5-min Rain = 0
KGO1 141648Z 01016KT 26/15 A3027 RMK A01 T02610147  RH  049%=      5-min Rain = 0
KGO1 141649Z 02014KT 26/15 A3027 RMK A01 T02590147  RH  050%=      5-min Rain = 0
KGO1 141650Z 02016KT 26/15 A3027 RMK A01 T02580146  RH  050%=      5-min Rain = 0
KGO1 141651Z 02013KT 26/15 A3026 RMK A01 T02580146  RH  050%=      5-min Rain = 0
KGO1 141652Z 03013KT 26/15 A3026 RMK A01 T02580146  RH  050%=      5-min Rain = 0
KGO1 141653Z 02014KT 26/15 A3026 RMK A01 T02590146  RH  050%=      5-min Rain = 0
KGO1 141654Z 03012KT 26/15 A3026 RMK A01 T02590147  RH  050%=      5-min Rain = 0
KGO1 141655Z 03014KT 26/15 A3026 RMK A01 T02600148  RH  050%=      5-min Rain = 0
KGO1 141656Z 03014KT 26/15 A3027 RMK A01 T02610148  RH  050%=      5-min Rain = 0
KGO1 141657Z 03015KT 26/14 A3027 RMK A01 T02600143  RH  048%=      5-min Rain = 0
KGO1 141658Z 04011KT 26/15 A3026 RMK A01 T02560145  RH  050%=      5-min Rain = 0
KGO1 141659Z 03009KT 26/15 A3026 RMK A01 T02550147  RH  051%=      5-min Rain = 0
KGO1 141700Z 04013KT 26/15 A3026 RMK A01 T02560146  RH  051%=      5-min Rain = 0
KGO1 141701Z 03014KT 26/15 A3026 RMK A01 T02570145  RH  050%=      5-min Rain = 0
KGO1 141702Z 03013KT 26/14 A3026 RMK A01 T02580144  RH  049%=      5-min Rain = 0
KGO1 141703Z 03014KT 26/15 A3026 RMK A01 T02600147  RH  050%=      5-min Rain = 0
KGO1 141704Z 02015KT 26/15 A3026 RMK A01 T02620147  RH  049%=      5-min Rain = 0
KGO1 141705Z 03015KT 26/14 A3026 RMK A01 T02630144  RH  048%=      5-min Rain = 0
KGO1 141706Z 03012KT 27/15 A3026 RMK A01 T02650146  RH  048%=      5-min Rain = 0
KGO1 141707Z 04013KT 27/15 A3026 RMK A01 T02690150  RH  048%=      5-min Rain = 0
KGO1 141708Z 03013KT 27/15 A3026 RMK A01 T02710149  RH  047%=      5-min Rain = 0
KGO1 141709Z 04013KT 27/15 A3026 RMK A01 T02700147  RH  047%=      5-min Rain = 0
KGO1 141710Z 03014KT 27/15 A3026 RMK A01 T02690148  RH  047%=      5-min Rain = 0
KGO1 141711Z 03013KT 27/15 A3026 RMK A01 T02700147  RH  047%=      5-min Rain = 0
KGO1 141712Z 03013KT 27/15 A3026 RMK A01 T02700148  RH  047%=      5-min Rain = 0
KGO1 141713Z 04013KT 27/15 A3026 RMK A01 T02710147  RH  047%=      5-min Rain = 0
KGO1 141714Z 03013KT 27/15 A3026 RMK A01 T02740148  RH  046%=      5-min Rain = 0
KGO1 141715Z 03011KT 27/15 A3025 RMK A01 T02730147  RH  046%=      5-min Rain = 0
KGO1 141716Z 02010KT 27/15 A3025 RMK A01 T02710148  RH  047%=      5-min Rain = 0
KGO1 141717Z 02009KT 27/15 A3025 RMK A01 T02710150  RH  047%=      5-min Rain = 0
KGO1 141718Z 02010KT 27/15 A3025 RMK A01 T02720150  RH  047%=      5-min Rain = 0
KGO1 141719Z 05010KT 27/15 A3025 RMK A01 T02740152  RH  047%=      5-min Rain = 0
KGO1 141720Z 05012KT 28/15 A3025 RMK A01 T02760150  RH  046%=      5-min Rain = 0
KGO1 141721Z 05010KT 28/15 A3025 RMK A01 T02760149  RH  046%=      5-min Rain = 0
KGO1 141722Z 05011KT 28/15 A3025 RMK A01 T02760149  RH  046%=      5-min Rain = 0
KGO1 141723Z 03009KT 28/15 A3025 RMK A01 T02780150  RH  046%=      5-min Rain = 0
KGO1 141724Z 04008KT 28/15 A3025 RMK A01 T02770151  RH  046%=      5-min Rain = 0
KGO1 141725Z 06008KT 28/15 A3025 RMK A01 T02790150  RH  045%=      5-min Rain = 0
KGO1 141726Z 05011KT 28/15 A3025 RMK A01 T02810148  RH  044%=      5-min Rain = 0
KGO1 141727Z 03011KT 28/15 A3025 RMK A01 T02800148  RH  045%=      5-min Rain = 0
KGO1 141728Z 03014KT 28/15 A3025 RMK A01 T02810149  RH  044%=      5-min Rain = 0
KGO1 141729Z 04010KT 28/15 A3025 RMK A01 T02810149  RH  045%=      5-min Rain = 0
KGO1 141730Z 05005KT 28/15 A3025 RMK A01 T02780147  RH  045%=      5-min Rain = 0
KGO1 141731Z 04008KT 28/15 A3025 RMK A01 T02770150  RH  046%=      5-min Rain = 0
KGO1 141732Z 03009G14KT 28/15 A3025 RMK A01 T02810150  RH  045%=      5-min Rain = 0
KGO1 141733Z 03012KT 28/15 A3024 RMK A01 T02820149  RH  044%=      5-min Rain = 0
KGO1 141734Z 05011G18KT 28/15 A3024 RMK A01 T02800148  RH  044%=      5-min Rain = 0
KGO1 141735Z 04011G17KT 28/15 A3024 RMK A01 T02800147  RH  044%=      5-min Rain = 0
KGO1 141736Z 03011G16KT 28/15 A3024 RMK A01 T02840147  RH  043%=      5-min Rain = 0
KGO1 141737Z 02010KT 28/15 A3024 RMK A01 T02840147  RH  043%=      5-min Rain = 0
KGO1 141738Z 03012KT 28/15 A3024 RMK A01 T02840148  RH  044%=      5-min Rain = 0
KGO1 141739Z 04010KT 28/15 A3024 RMK A01 T02840145  RH  043%=      5-min Rain = 0
KGO1 141740Z 05009KT 28/15 A3024 RMK A01 T02820147  RH  044%=      5-min Rain = 0
KGO1 141741Z 07008KT 28/14 A3024 RMK A01 T02820144  RH  043%=      5-min Rain = 0
KGO1 141742Z 06008KT 28/14 A3024 RMK A01 T02830144  RH  043%=      5-min Rain = 0
KGO1 141743Z 08008KT 28/14 A3024 RMK A01 T02830143  RH  042%=      5-min Rain = 0
KGO1 141744Z 06009KT 28/15 A3024 RMK A01 T02830146  RH  043%=      5-min Rain = 0
KGO1 141745Z 03009KT 28/15 A3025 RMK A01 T02840147  RH  043%=      5-min Rain = 0
KGO1 141746Z 03007KT 28/15 A3025 RMK A01 T02840149  RH  043%=      5-min Rain = 0
KGO1 141747Z 01009KT 29/15 A3025 RMK A01 T02860148  RH  043%=      5-min Rain = 0
KGO1 141748Z 04005KT 29/15 A3025 RMK A01 T02870150  RH  043%=      5-min Rain = 0
KGO1 141749Z 01007KT 29/15 A3025 RMK A01 T02880149  RH  043%=      5-min Rain = 0
KGO1 141750Z 01008KT 29/15 A3025 RMK A01 T02880149  RH  043%=      5-min Rain = 0
KGO1 141751Z 01009KT 29/15 A3025 RMK A01 T02860148  RH  043%=      5-min Rain = 0
KGO1 141752Z 01007KT 29/15 A3025 RMK A01 T02860148  RH  043%=      5-min Rain = 0
KGO1 141753Z 02005KT 29/15 A3025 RMK A01 T02850146  RH  043%=      5-min Rain = 0
KGO1 141754Z 01006KT 28/15 A3025 RMK A01 T02840147  RH  043%=      5-min Rain = 0
KGO1 141755Z 35007KT 29/15 A3025 RMK A01 T02850148  RH  043%=      5-min Rain = 0
KGO1 141756Z 02008KT 29/15 A3025 RMK A01 T02860146  RH  042%=      5-min Rain = 0
KGO1 141757Z 03008KT 29/15 A3024 RMK A01 T02850146  RH  043%=      5-min Rain = 0
KGO1 141758Z 05006KT 28/15 A3024 RMK A01 T02830145  RH  043%=      5-min Rain = 0
KGO1 141759Z 03004KT 28/15 A3024 RMK A01 T02830146  RH  043%=      5-min Rain = 0
KGO1 141800Z 03006KT 28/15 A3024 RMK A01 T02840147  RH  043%=      5-min Rain = 0
KGO1 141801Z 04007KT 29/15 A3023 RMK A01 T02890150  RH  043%=      5-min Rain = 0
KGO1 141802Z 05006KT 29/15 A3023 RMK A01 T02910148  RH  042%=      5-min Rain = 0
KGO1 141803Z 05005KT 29/15 A3023 RMK A01 T02920150  RH  042%=      5-min Rain = 0
KGO1 141804Z 02007KT 30/15 A3023 RMK A01 T02950151  RH  042%=      5-min Rain = 0
KGO1 141805Z 02007KT 30/15 A3023 RMK A01 T02980147  RH  040%=      5-min Rain = 0
KGO1 141806Z 03006G11KT 30/15 A3023 RMK A01 T02960148  RH  041%=      5-min Rain = 0
KGO1 141807Z 03009KT 30/15 A3023 RMK A01 T02950145  RH  040%=      5-min Rain = 0
KGO1 141808Z 02006KT 29/14 A3022 RMK A01 T02920141  RH  040%=      5-min Rain = 0
KGO1 141809Z 01004KT 29/14 A3022 RMK A01 T02880142  RH  041%=      5-min Rain = 0
KGO1 141810Z 03009KT 29/14 A3022 RMK A01 T02870141  RH  041%=      5-min Rain = 0
KGO1 141811Z 01007KT 29/14 A3022 RMK A01 T02880141  RH  041%=      5-min Rain = 0
KGO1 141812Z 03008KT 29/14 A3022 RMK A01 T02890144  RH  041%=      5-min Rain = 0
KGO1 141813Z 01007KT 29/14 A3022 RMK A01 T02910143  RH  040%=      5-min Rain = 0
KGO1 141814Z 01009KT 29/14 A3022 RMK A01 T02910144  RH  041%=      5-min Rain = 0
KGO1 141815Z 34008KT 29/15 A3022 RMK A01 T02930145  RH  040%=      5-min Rain = 0
KGO1 141816Z 35008KT 29/14 A3022 RMK A01 T02940144  RH  040%=      5-min Rain = 0
KGO1 141817Z 02005KT 29/14 A3022 RMK A01 T02920142  RH  040%=      5-min Rain = 0
KGO1 141818Z 06005KT 29/14 A3021 RMK A01 T02890143  RH  041%=      5-min Rain = 0
KGO1 141819Z 08006KT 29/14 A3021 RMK A01 T02910141  RH  040%=      5-min Rain = 0
KGO1 141820Z 07004KT 29/14 A3021 RMK A01 T02930144  RH  040%=      5-min Rain = 0
KGO1 141821Z 03006KT 30/15 A3021 RMK A01 T02980146  RH  040%=      5-min Rain = 0
KGO1 141822Z 03007KT 30/15 A3021 RMK A01 T03000145  RH  039%=      5-min Rain = 0
KGO1 141823Z 03006KT 30/14 A3021 RMK A01 T03000144  RH  039%=      5-min Rain = 0
KGO1 141824Z 06005KT 30/14 A3021 RMK A01 T02970143  RH  039%=      5-min Rain = 0
KGO1 141825Z 10005KT 30/15 A3021 RMK A01 T02950145  RH  040%=      5-min Rain = 0
KGO1 141826Z 08004KT 30/14 A3021 RMK A01 T02970144  RH  039%=      5-min Rain = 0
KGO1 141827Z 11004KT 30/14 A3021 RMK A01 T02970144  RH  039%=      5-min Rain = 0
KGO1 141828Z 11005KT 30/15 A3021 RMK A01 T02960148  RH  041%=      5-min Rain = 0
KGO1 141829Z 08010KT 30/15 A3021 RMK A01 T02970149  RH  040%=      5-min Rain = 0
KGO1 141830Z 07006KT 30/14 A3021 RMK A01 T02970144  RH  039%=      5-min Rain = 0
KGO1 141831Z 07005KT 29/15 A3021 RMK A01 T02940145  RH  040%=      5-min Rain = 0
KGO1 141832Z 09008G13KT 29/15 A302 RMK A01 T02940147  RH  041%=      5-min Rain = 0
KGO1 141833Z 10009KT 30/15 A302 RMK A01 T02960145  RH  040%=      5-min Rain = 0
KGO1 141834Z 08006KT 30/15 A302 RMK A01 T02960145  RH  040%=      5-min Rain = 0
KGO1 141835Z 08007KT 30/15 A302 RMK A01 T02970148  RH  040%=      5-min Rain = 0
KGO1 141836Z 09010KT 30/15 A302 RMK A01 T03010149  RH  040%=      5-min Rain = 0
KGO1 141837Z 09010KT 30/15 A302 RMK A01 T03030154  RH  040%=      5-min Rain = 0
KGO1 141838Z 10012KT 31/15 A302 RMK A01 T03060149  RH  039%=      5-min Rain = 0
KGO1 141839Z 10013KT 30/15 A302 RMK A01 T03040148  RH  039%=      5-min Rain = 0
KGO1 141840Z 10012KT 30/15 A302 RMK A01 T03000145  RH  039%=      5-min Rain = 0
KGO1 141841Z 11010KT 30/15 A302 RMK A01 T02990145  RH  039%=      5-min Rain = 0
KGO1 141842Z 11009KT 30/14 A302 RMK A01 T02990144  RH  039%=      5-min Rain = 0
KGO1 141843Z 12007KT 30/14 A3019 RMK A01 T02970144  RH  039%=      5-min Rain = 0
KGO1 141844Z 10007KT 30/15 A3019 RMK A01 T02990145  RH  039%=      5-min Rain = 0
KGO1 141845Z 09010G18KT 30/14 A3019 RMK A01 T03000143  RH  039%=      5-min Rain = 0
KGO1 141846Z 09014KT 30/14 A3019 RMK A01 T03000144  RH  039%=      5-min Rain = 0
KGO1 141847Z 09009KT 30/14 A3019 RMK A01 T02990139  RH  038%=      5-min Rain = 0
KGO1 141848Z 11010KT 30/15 A3019 RMK A01 T02960146  RH  040%=      5-min Rain = 0
KGO1 141849Z 10012KT 30/14 A3019 RMK A01 T02960144  RH  040%=      5-min Rain = 0
KGO1 141850Z 10008KT 30/14 A3019 RMK A01 T02960141  RH  039%=      5-min Rain = 0
KGO1 141851Z 11008KT 30/14 A3019 RMK A01 T02970140  RH  038%=      5-min Rain = 0
KGO1 141852Z 10007KT 30/14 A3019 RMK A01 T02970141  RH  039%=      5-min Rain = 0
KGO1 141853Z 08006KT 30/14 A3019 RMK A01 T02990141  RH  038%=      5-min Rain = 0
KGO1 141854Z 10008KT 30/15 A3019 RMK A01 T03010145  RH  038%=      5-min Rain = 0
KGO1 141855Z 08005KT 30/14 A3019 RMK A01 T03030144  RH  038%=      5-min Rain = 0
KGO1 141856Z 05006KT 30/14 A3019 RMK A01 T03030144  RH  038%=      5-min Rain = 0
KGO1 141857Z 07007KT 30/14 A3019 RMK A01 T03040142  RH  037%=      5-min Rain = 0
KGO1 141858Z 04009KT 30/14 A302 RMK A01 T03040142  RH  037%=      5-min Rain = 0
KGO1 141859Z 05007KT 30/14 A302 RMK A01 T03030140  RH  037%=      5-min Rain = 0
KGO1 141900Z 05007KT 30/14 A302 RMK A01 T03020140  RH  037%=      5-min Rain = 0
KGO1 141901Z 04006KT 30/14 A302 RMK A01 T03010139  RH  037%=      5-min Rain = 0
KGO1 141902Z 03009KT 30/14 A302 RMK A01 T02990139  RH  037%=      5-min Rain = 0
KGO1 141903Z 02007KT 30/14 A302 RMK A01 T02980138  RH  038%=      5-min Rain = 0
KGO1 141904Z 02007KT 30/14 A302 RMK A01 T02960138  RH  038%=      5-min Rain = 0
KGO1 141905Z 04005KT 30/14 A302 RMK A01 T02950135  RH  038%=      5-min Rain = 0
KGO1 141906Z 01006KT 30/14 A302 RMK A01 T02950137  RH  038%=      5-min Rain = 0
KGO1 141907Z 03008KT 30/14 A302 RMK A01 T02950136  RH  038%=      5-min Rain = 0
KGO1 141908Z 03007KT 30/14 A302 RMK A01 T02950139  RH  038%=      5-min Rain = 0
KGO1 141909Z 03007KT 30/14 A302 RMK A01 T02950136  RH  038%=      5-min Rain = 0
KGO1 141910Z 03005KT 29/14 A302 RMK A01 T02940138  RH  038%=      5-min Rain = 0
KGO1 141911Z 04003KT 30/14 A302 RMK A01 T02950139  RH  039%=      5-min Rain = 0
KGO1 141912Z 07002KT 30/14 A302 RMK A01 T02980142  RH  039%=      5-min Rain = 0
KGO1 141913Z 04004KT 30/14 A3019 RMK A01 T03020142  RH  038%=      5-min Rain = 0
KGO1 141914Z 09008KT 30/14 A302 RMK A01 T03040144  RH  038%=      5-min Rain = 0
KGO1 141915Z 09006KT 31/14 A302 RMK A01 T03050138  RH  036%=      5-min Rain = 0
KGO1 141916Z 05006KT 30/14 A302 RMK A01 T03010138  RH  037%=      5-min Rain = 0
KGO1 141917Z 04007KT 30/14 A302 RMK A01 T03000138  RH  037%=      5-min Rain = 0
KGO1 141918Z 05008KT 30/14 A302 RMK A01 T03000140  RH  038%=      5-min Rain = 0
KGO1 141919Z 04008KT 30/14 A302 RMK A01 T03040141  RH  037%=      5-min Rain = 0
KGO1 141920Z 03007KT 31/14 A302 RMK A01 T03080144  RH  037%=      5-min Rain = 0
KGO1 141921Z 02008KT 31/14 A302 RMK A01 T03120142  RH  036%=      5-min Rain = 0
KGO1 141922Z 04005KT 31/14 A302 RMK A01 T03120141  RH  035%=      5-min Rain = 0
KGO1 141923Z 07006KT 31/14 A302 RMK A01 T03090144  RH  037%=      5-min Rain = 0
KGO1 141924Z 08009KT 31/15 A302 RMK A01 T03100147  RH  037%=      5-min Rain = 0
KGO1 141925Z 06010KT 31/15 A302 RMK A01 T03090146  RH  037%=      5-min Rain = 0
KGO1 141926Z 05008KT 31/14 A302 RMK A01 T03070144  RH  037%=      5-min Rain = 0
KGO1 141927Z 08005KT 31/15 A302 RMK A01 T03070145  RH  037%=      5-min Rain = 0
KGO1 141928Z 05004KT 31/15 A302 RMK A01 T03070148  RH  038%=      5-min Rain = 0
KGO1 141929Z 04005KT 31/15 A302 RMK A01 T03100145  RH  037%=      5-min Rain = 0
KGO1 141930Z 08008KT 31/15 A302 RMK A01 T03100147  RH  037%=      5-min Rain = 0
KGO1 141931Z 06008KT 31/15 A302 RMK A01 T03100145  RH  037%=      5-min Rain = 0
KGO1 141932Z 06007KT 31/14 A302 RMK A01 T03090144  RH  037%=      5-min Rain = 0
KGO1 141933Z 06005KT 31/14 A302 RMK A01 T03070144  RH  037%=      5-min Rain = 0
KGO1 141934Z 05005KT 31/15 A302 RMK A01 T03070145  RH  038%=      5-min Rain = 0
KGO1 141935Z 07008KT 31/15 A302 RMK A01 T03080147  RH  038%=      5-min Rain = 0
KGO1 141936Z 05007KT 31/15 A302 RMK A01 T03080145  RH  037%=      5-min Rain = 0
KGO1 141937Z 04004KT 31/15 A302 RMK A01 T03050145  RH  038%=      5-min Rain = 0
KGO1 141938Z 04003KT 31/15 A3019 RMK A01 T03050146  RH  038%=      5-min Rain = 0
KGO1 141939Z 10006KT 31/15 A3019 RMK A01 T03060150  RH  039%=      5-min Rain = 0
KGO1 141940Z 11006KT 31/15 A3019 RMK A01 T03100148  RH  037%=      5-min Rain = 0
KGO1 141941Z 08007KT 31/15 A3019 RMK A01 T03110149  RH  037%=      5-min Rain = 0
KGO1 141942Z 07005KT 31/15 A3019 RMK A01 T03110145  RH  036%=      5-min Rain = 0
KGO1 141943Z 06008G15KT 31/14 A3019 RMK A01 T03050144  RH  037%=      5-min Rain = 0
KGO1 141944Z 08010KT 30/14 A3019 RMK A01 T03000140  RH  038%=      5-min Rain = 0
KGO1 141945Z 07009KT 30/14 A3019 RMK A01 T02950140  RH  039%=      5-min Rain = 0
KGO1 141946Z 06008KT 29/14 A3019 RMK A01 T02930141  RH  039%=      5-min Rain = 0
KGO1 141947Z 04005KT 30/14 A3019 RMK A01 T02960142  RH  039%=      5-min Rain = 0
KGO1 141948Z 05004KT 30/14 A3019 RMK A01 T02990142  RH  038%=      5-min Rain = 0
KGO1 141949Z 08004KT 30/14 A3019 RMK A01 T03020139  RH  037%=      5-min Rain = 0
KGO1 141950Z 06004KT 30/14 A3019 RMK A01 T03010140  RH  037%=      5-min Rain = 0
KGO1 141951Z 05004KT 30/14 A3019 RMK A01 T03010138  RH  037%=      5-min Rain = 0
KGO1 141952Z 04002KT 30/14 A3019 RMK A01 T03010138  RH  037%=      5-min Rain = 0
KGO1 141953Z 05005KT 30/14 A3019 RMK A01 T03030142  RH  037%=      5-min Rain = 0
KGO1 141954Z 09007KT 31/15 A3019 RMK A01 T03080145  RH  037%=      5-min Rain = 0
KGO1 141955Z 08008KT 31/15 A3019 RMK A01 T03100148  RH  037%=      5-min Rain = 0
KGO1 141956Z 08006KT 31/15 A3019 RMK A01 T03100148  RH  037%=      5-min Rain = 0
KGO1 141957Z 10008KT 31/15 A3018 RMK A01 T03110149  RH  037%=      5-min Rain = 0
KGO1 141958Z 10005KT 31/15 A3018 RMK A01 T03100149  RH  038%=      5-min Rain = 0
KGO1 141959Z 09005KT 31/15 A3018 RMK A01 T03090145  RH  037%=      5-min Rain = 0
KGO1 142000Z 09004KT 31/14 A3018 RMK A01 T03060144  RH  037%=      5-min Rain = 0
KGO1 142001Z 08002KT 31/15 A3018 RMK A01 T03050146  RH  038%=      5-min Rain = 0
KGO1 142002Z 09003KT 31/15 A3018 RMK A01 T03060146  RH  038%=      5-min Rain = 0
KGO1 142003Z 10008KT 31/15 A3018 RMK A01 T03070146  RH  038%=      5-min Rain = 0
KGO1 142004Z 10007KT 31/14 A3018 RMK A01 T03060144  RH  037%=      5-min Rain = 0
KGO1 142005Z 09008KT 31/15 A3018 RMK A01 T03060146  RH  038%=      5-min Rain = 0
KGO1 142006Z 09007KT 31/15 A3018 RMK A01 T03080148  RH  038%=      5-min Rain = 0
KGO1 142007Z 08006KT 31/15 A3018 RMK A01 T03090146  RH  037%=      5-min Rain = 0
KGO1 142008Z 06005KT 31/14 A3018 RMK A01 T03080144  RH  037%=      5-min Rain = 0
KGO1 142009Z 06006KT 31/15 A3018 RMK A01 T03060147  RH  038%=      5-min Rain = 0
KGO1 142010Z 07004KT 31/15 A3018 RMK A01 T03080145  RH  037%=      5-min Rain = 0
KGO1 142011Z 05003KT 31/14 A3018 RMK A01 T03080143  RH  037%=      5-min Rain = 0
KGO1 142012Z 11000KT 31/14 A3018 RMK A01 T03060141  RH  037%=      5-min Rain = 0
KGO1 142013Z 10005KT 31/14 A3018 RMK A01 T03060144  RH  037%=      5-min Rain = 0
KGO1 142014Z 10008KT 31/15 A3018 RMK A01 T03080149  RH  038%=      5-min Rain = 0
KGO1 142015Z 08007KT 31/15 A3018 RMK A01 T03100151  RH  038%=      5-min Rain = 0
KGO1 142016Z 07007KT 31/15 A3018 RMK A01 T03120148  RH  037%=      5-min Rain = 0
KGO1 142017Z 05006KT 31/15 A3018 RMK A01 T03130148  RH  037%=      5-min Rain = 0
KGO1 142018Z 06004KT 31/15 A3018 RMK A01 T03110145  RH  037%=      5-min Rain = 0
KGO1 142019Z 05003KT 31/15 A3017 RMK A01 T03080148  RH  038%=      5-min Rain = 0
KGO1 142020Z 10004KT 31/15 A3017 RMK A01 T03090151  RH  038%=      5-min Rain = 0
KGO1 142021Z 09008KT 31/15 A3017 RMK A01 T03130153  RH  038%=      5-min Rain = 0
KGO1 142022Z 09008KT 32/15 A3017 RMK A01 T03150147  RH  036%=      5-min Rain = 0
KGO1 142023Z 08007KT 31/15 A3017 RMK A01 T03120145  RH  036%=      5-min Rain = 0
KGO1 142024Z 07006KT 31/15 A3017 RMK A01 T03090146  RH  037%=      5-min Rain = 0
KGO1 142025Z 06004KT 31/14 A3017 RMK A01 T03090143  RH  036%=      5-min Rain = 0
KGO1 142026Z 08002KT 31/14 A3017 RMK A01 T03070142  RH  037%=      5-min Rain = 0
KGO1 142027Z 13004KT 31/14 A3017 RMK A01 T03060143  RH  037%=      5-min Rain = 0
KGO1 142028Z 14003KT 31/15 A3017 RMK A01 T03070145  RH  037%=      5-min Rain = 0
KGO1 142029Z 11001KT 31/14 A3017 RMK A01 T03090141  RH  036%=      5-min Rain = 0
KGO1 142030Z 13002KT 31/15 A3017 RMK A01 T03090145  RH  037%=      5-min Rain = 0
KGO1 142031Z 09005KT 31/15 A3017 RMK A01 T03100145  RH  037%=      5-min Rain = 0
KGO1 142032Z 09006KT 31/15 A3017 RMK A01 T03120148  RH  037%=      5-min Rain = 0
KGO1 142033Z 08010KT 31/15 A3017 RMK A01 T03140147  RH  036%=      5-min Rain = 0
KGO1 142034Z 07009KT 31/15 A3017 RMK A01 T03130146  RH  036%=      5-min Rain = 0
KGO1 142035Z 09008KT 31/15 A3017 RMK A01 T03130147  RH  037%=      5-min Rain = 0
KGO1 142036Z 07008KT 31/15 A3017 RMK A01 T03130146  RH  036%=      5-min Rain = 0
KGO1 142037Z 07006KT 31/14 A3017 RMK A01 T03120144  RH  036%=      5-min Rain = 0
KGO1 142038Z 08007KT 31/15 A3017 RMK A01 T03120145  RH  036%=      5-min Rain = 0
KGO1 142039Z 08007KT 31/15 A3017 RMK A01 T03110146  RH  037%=      5-min Rain = 0
KGO1 142040Z 09007KT 31/14 A3017 RMK A01 T03110144  RH  036%=      5-min Rain = 0
KGO1 142041Z 07005KT 31/15 A3017 RMK A01 T03100145  RH  037%=      5-min Rain = 0
KGO1 142042Z 06004KT 31/14 A3017 RMK A01 T03100141  RH  036%=      5-min Rain = 0
KGO1 142043Z 05004KT 31/14 A3017 RMK A01 T03090143  RH  036%=      5-min Rain = 0
KGO1 142044Z 05004KT 31/14 A3017 RMK A01 T03120142  RH  036%=      5-min Rain = 0
KGO1 142045Z 04002KT 31/14 A3017 RMK A01 T03130142  RH  035%=      5-min Rain = 0
KGO1 142046Z 06003KT 31/14 A3017 RMK A01 T03130144  RH  036%=      5-min Rain = 0
KGO1 142047Z 07003KT 31/14 A3017 RMK A01 T03120140  RH  035%=      5-min Rain = 0
KGO1 142048Z 08006KT 31/15 A3016 RMK A01 T03120149  RH  037%=      5-min Rain = 0
KGO1 142049Z 10007KT 31/15 A3016 RMK A01 T03120153  RH  038%=      5-min Rain = 0
KGO1 142050Z 10007KT 31/15 A3016 RMK A01 T03140150  RH  037%=      5-min Rain = 0
KGO1 142051Z 10007KT 32/15 A3016 RMK A01 T03150150  RH  037%=      5-min Rain = 0
KGO1 142052Z 13005KT 32/15 A3016 RMK A01 T03170147  RH  036%=      5-min Rain = 0
KGO1 142053Z 14002KT 32/15 A3016 RMK A01 T03150145  RH  036%=      5-min Rain = 0
KGO1 142054Z 04005KT 31/15 A3016 RMK A01 T03140147  RH  036%=      5-min Rain = 0
KGO1 142055Z 08006KT 32/15 A3016 RMK A01 T03150151  RH  037%=      5-min Rain = 0
KGO1 142056Z 09008KT 32/15 A3016 RMK A01 T03190153  RH  037%=      5-min Rain = 0
KGO1 142057Z 08008KT 32/15 A3016 RMK A01 T03180150  RH  036%=      5-min Rain = 0
KGO1 142058Z 08007KT 32/15 A3016 RMK A01 T03150151  RH  037%=      5-min Rain = 0
KGO1 142059Z 06009KT 31/15 A3016 RMK A01 T03140151  RH  037%=      5-min Rain = 0
KGO1 142100Z 09009KT 32/15 A3016 RMK A01 T03160151  RH  037%=      5-min Rain = 0
KGO1 142101Z 07007KT 32/15 A3016 RMK A01 T03180152  RH  037%=      5-min Rain = 0
KGO1 142102Z 08006KT 32/15 A3016 RMK A01 T03200150  RH  036%=      5-min Rain = 0
KGO1 142103Z 07005KT 32/15 A3016 RMK A01 T03190146  RH  035%=      5-min Rain = 0
KGO1 142104Z 04004KT 32/14 A3016 RMK A01 T03170144  RH  035%=      5-min Rain = 0
KGO1 142105Z 07003KT 32/15 A3016 RMK A01 T03150145  RH  036%=      5-min Rain = 0
KGO1 142106Z 15005KT 32/15 A3016 RMK A01 T03150145  RH  036%=      5-min Rain = 0
KGO1 142107Z 16004KT 32/14 A3016 RMK A01 T03150144  RH  036%=      5-min Rain = 0
KGO1 142108Z 13002KT 32/14 A3016 RMK A01 T03150143  RH  035%=      5-min Rain = 0
KGO1 142109Z 14002KT 32/14 A3015 RMK A01 T03150143  RH  035%=      5-min Rain = 0
KGO1 142110Z 10003KT 32/14 A3016 RMK A01 T03160142  RH  035%=      5-min Rain = 0
KGO1 142111Z 12002KT 31/14 A3016 RMK A01 T03140141  RH  035%=      5-min Rain = 0
KGO1 142112Z 04002KT 31/14 A3015 RMK A01 T03120141  RH  035%=      5-min Rain = 0
KGO1 142113Z 16006KT 31/15 A3015 RMK A01 T03140147  RH  036%=      5-min Rain = 0
KGO1 142114Z 13006KT 32/15 A3015 RMK A01 T03200149  RH  036%=      5-min Rain = 0
KGO1 142115Z 11007KT 33/15 A3015 RMK A01 T03250149  RH  035%=      5-min Rain = 0
KGO1 142116Z 10008KT 32/15 A3015 RMK A01 T03220150  RH  035%=      5-min Rain = 0
KGO1 142117Z 08009KT 32/15 A3015 RMK A01 T03190148  RH  036%=      5-min Rain = 0
KGO1 142118Z 05008KT 32/15 A3015 RMK A01 T03180148  RH  036%=      5-min Rain = 0
KGO1 142119Z 08007KT 32/15 A3015 RMK A01 T03180150  RH  036%=      5-min Rain = 0
KGO1 142120Z 06008KT 32/15 A3015 RMK A01 T03200149  RH  036%=      5-min Rain = 0
KGO1 142121Z 06006KT 32/15 A3015 RMK A01 T03220148  RH  035%=      5-min Rain = 0
KGO1 142122Z 07007KT 32/15 A3015 RMK A01 T03210147  RH  035%=      5-min Rain = 0
KGO1 142123Z 08006KT 32/15 A3015 RMK A01 T03190145  RH  035%=      5-min Rain = 0
KGO1 142124Z 08005KT 32/15 A3015 RMK A01 T03170147  RH  036%=      5-min Rain = 0
KGO1 142125Z 07004KT 32/14 A3015 RMK A01 T03180144  RH  035%=      5-min Rain = 0
KGO1 142126Z 11002KT 32/14 A3015 RMK A01 T03170141  RH  034%=      5-min Rain = 0
KGO1 142127Z 16001KT 32/14 A3015 RMK A01 T03150143  RH  035%=      5-min Rain = 0
KGO1 142128Z 08000KT 32/15 A3015 RMK A01 T03150146  RH  036%=      5-min Rain = 0
KGO1 142129Z 03003KT 32/15 A3015 RMK A01 T03180145  RH  035%=      5-min Rain = 0
KGO1 142130Z 07006KT 32/15 A3015 RMK A01 T03190145  RH  035%=      5-min Rain = 0
KGO1 142131Z 09006KT 32/15 A3015 RMK A01 T03190152  RH  036%=      5-min Rain = 0
KGO1 142132Z 10008KT 32/15 A3015 RMK A01 T03230150  RH  035%=      5-min Rain = 0
KGO1 142133Z 10006KT 32/14 A3015 RMK A01 T03220143  RH  034%=      5-min Rain = 0
KGO1 142134Z 10004KT 32/14 A3015 RMK A01 T03190144  RH  035%=      5-min Rain = 0
KGO1 142135Z 09004KT 32/14 A3015 RMK A01 T03190144  RH  035%=      5-min Rain = 0
KGO1 142136Z 10003KT 32/15 A3015 RMK A01 T03180145  RH  035%=      5-min Rain = 0
KGO1 142137Z 12003KT 32/15 A3015 RMK A01 T03180145  RH  035%=      5-min Rain = 0
KGO1 142138Z 11001KT 32/14 A3015 RMK A01 T03180143  RH  035%=      5-min Rain = 0
KGO1 142139Z 17002KT 32/14 A3015 RMK A01 T03170143  RH  035%=      5-min Rain = 0
KGO1 142140Z 18003KT 32/14 A3014 RMK A01 T03170144  RH  035%=      5-min Rain = 0
KGO1 142141Z 17003KT 32/14 A3014 RMK A01 T03180142  RH  035%=      5-min Rain = 0
KGO1 142142Z 16002KT 32/15 A3014 RMK A01 T03180145  RH  035%=      5-min Rain = 0
KGO1 142143Z 13001KT 32/15 A3014 RMK A01 T03170145  RH  035%=      5-min Rain = 0
KGO1 142144Z 07000KT 32/14 A3014 RMK A01 T03170143  RH  035%=      5-min Rain = 0
KGO1 142145Z 06003KT 32/14 A3014 RMK A01 T03180144  RH  035%=      5-min Rain = 0
KGO1 142146Z 05005KT 32/14 A3014 RMK A01 T03180142  RH  034%=      5-min Rain = 0
KGO1 142147Z 04003KT 32/14 A3014 RMK A01 T03160143  RH  035%=      5-min Rain = 0
KGO1 142148Z 04001KT 31/14 A3014 RMK A01 T03140143  RH  035%=      5-min Rain = 0
KGO1 142149Z 28000KT 32/14 A3014 RMK A01 T03150144  RH  036%=      5-min Rain = 0
KGO1 142150Z 31001KT 32/15 A3014 RMK A01 T03170145  RH  035%=      5-min Rain = 0
KGO1 142151Z 03003KT 32/15 A3014 RMK A01 T03190146  RH  035%=      5-min Rain = 0
KGO1 142152Z 03005KT 32/15 A3014 RMK A01 T03210145  RH  035%=      5-min Rain = 0
KGO1 142153Z 00004KT 32/15 A3014 RMK A01 T03220146  RH  035%=      5-min Rain = 0
KGO1 142154Z 05002KT 32/15 A3014 RMK A01 T03230145  RH  034%=      5-min Rain = 0
KGO1 142155Z 10004KT 32/15 A3014 RMK A01 T03230149  RH  035%=      5-min Rain = 0
KGO1 142156Z 08006KT 32/15 A3014 RMK A01 T03230149  RH  035%=      5-min Rain = 0
KGO1 142157Z 08007KT 32/15 A3014 RMK A01 T03220149  RH  035%=      5-min Rain = 0
KGO1 142158Z 10008KT 32/15 A3014 RMK A01 T03210153  RH  036%=      5-min Rain = 0
KGO1 142159Z 09009KT 32/15 A3014 RMK A01 T03220153  RH  036%=      5-min Rain = 0
KGO1 142200Z 09007KT 32/15 A3014 RMK A01 T03210154  RH  037%=      5-min Rain = 0
KGO1 142201Z 07007KT 32/15 A3013 RMK A01 T03220150  RH  035%=      5-min Rain = 0
KGO1 142202Z 06005KT 32/15 A3013 RMK A01 T03220150  RH  036%=      5-min Rain = 0
KGO1 142203Z 10003KT 32/15 A3013 RMK A01 T03210151  RH  036%=      5-min Rain = 0
KGO1 142204Z 15006KT 32/15 A3013 RMK A01 T03240150  RH  035%=      5-min Rain = 0
KGO1 142205Z 16003KT 32/15 A3013 RMK A01 T03210146  RH  035%=      5-min Rain = 0
KGO1 142206Z 17004KT 32/15 A3013 RMK A01 T03200147  RH  035%=      5-min Rain = 0
KGO1 142207Z 17004KT 32/15 A3013 RMK A01 T03200148  RH  035%=      5-min Rain = 0
KGO1 142208Z 18003KT 32/15 A3013 RMK A01 T03200146  RH  035%=      5-min Rain = 0
KGO1 142209Z 20001KT 32/15 A3013 RMK A01 T03180145  RH  035%=      5-min Rain = 0
KGO1 142210Z 11003G9KT 32/15 A3013 RMK A01 T03170147  RH  036%=      5-min Rain = 0
KGO1 142211Z 11007KT 32/15 A3013 RMK A01 T03180151  RH  036%=      5-min Rain = 0
KGO1 142212Z 08007KT 32/15 A3013 RMK A01 T03190152  RH  036%=      5-min Rain = 0
KGO1 142213Z 08005KT 32/16 A3013 RMK A01 T03200155  RH  037%=      5-min Rain = 0
KGO1 142214Z 07008KT 32/16 A3013 RMK A01 T03210156  RH  037%=      5-min Rain = 0
KGO1 142215Z 07006KT 32/15 A3013 RMK A01 T03210150  RH  036%=      5-min Rain = 0
KGO1 142216Z 05007KT 32/15 A3013 RMK A01 T03180150  RH  036%=      5-min Rain = 0
KGO1 142217Z 06007KT 32/15 A3013 RMK A01 T03180151  RH  036%=      5-min Rain = 0
KGO1 142218Z 09005KT 32/15 A3013 RMK A01 T03210153  RH  036%=      5-min Rain = 0
KGO1 142219Z 08006KT 32/15 A3013 RMK A01 T03220154  RH  036%=      5-min Rain = 0
KGO1 142220Z 07009KT 32/16 A3013 RMK A01 T03220155  RH  036%=      5-min Rain = 0
KGO1 142221Z 07005KT 32/15 A3013 RMK A01 T03210150  RH  036%=      5-min Rain = 0
KGO1 142222Z 08009KT 32/15 A3013 RMK A01 T03200154  RH  037%=      5-min Rain = 0
KGO1 142223Z 07007KT 32/15 A3013 RMK A01 T03190153  RH  037%=      5-min Rain = 0
KGO1 142224Z 08005KT 32/15 A3013 RMK A01 T03190151  RH  036%=      5-min Rain = 0
KGO1 142225Z 08004KT 32/15 A3013 RMK A01 T03180150  RH  036%=      5-min Rain = 0
KGO1 142226Z 11004KT 32/15 A3013 RMK A01 T03180149  RH  036%=      5-min Rain = 0
KGO1 142227Z 11003KT 32/15 A3013 RMK A01 T03170148  RH  036%=      5-min Rain = 0
KGO1 142228Z 09004KT 32/15 A3013 RMK A01 T03170150  RH  036%=      5-min Rain = 0
KGO1 142229Z 05004KT 32/15 A3013 RMK A01 T03170150  RH  037%=      5-min Rain = 0
KGO1 142230Z 06004KT 32/15 A3013 RMK A01 T03170150  RH  036%=      5-min Rain = 0
KGO1 142231Z 06004KT 32/15 A3013 RMK A01 T03190151  RH  036%=      5-min Rain = 0
KGO1 142232Z 08004KT 32/15 A3013 RMK A01 T03200152  RH  036%=      5-min Rain = 0
KGO1 142233Z 07004KT 32/15 A3013 RMK A01 T03200151  RH  036%=      5-min Rain = 0
KGO1 142234Z 09002KT 32/15 A3013 RMK A01 T03210151  RH  036%=      5-min Rain = 0
KGO1 142235Z 11003KT 32/15 A3013 RMK A01 T03210151  RH  036%=      5-min Rain = 0
KGO1 142236Z 10005KT 32/15 A3013 RMK A01 T03200152  RH  036%=      5-min Rain = 0
KGO1 142237Z 09008KT 32/15 A3013 RMK A01 T03210153  RH  036%=      5-min Rain = 0
KGO1 142238Z 08004KT 32/15 A3013 RMK A01 T03210151  RH  036%=      5-min Rain = 0
KGO1 142239Z 06004KT 32/15 A3012 RMK A01 T03220152  RH  036%=      5-min Rain = 0
KGO1 142240Z 11006KT 32/15 A3013 RMK A01 T03240153  RH  036%=      5-min Rain = 0
KGO1 142241Z 12009KT 33/15 A3013 RMK A01 T03250152  RH  035%=      5-min Rain = 0
KGO1 142242Z 12008KT 32/15 A3013 RMK A01 T03240149  RH  035%=      5-min Rain = 0
KGO1 142243Z 12008KT 32/15 A3013 RMK A01 T03230152  RH  036%=      5-min Rain = 0
KGO1 142244Z 13007KT 32/15 A3013 RMK A01 T03230149  RH  035%=      5-min Rain = 0
KGO1 142245Z 14004KT 32/15 A3013 RMK A01 T03230146  RH  034%=      5-min Rain = 0
KGO1 142246Z 14006KT 32/15 A3012 RMK A01 T03220147  RH  035%=      5-min Rain = 0
KGO1 142247Z 13005KT 32/15 A3012 RMK A01 T03230145  RH  034%=      5-min Rain = 0
KGO1 142248Z 14005KT 32/15 A3012 RMK A01 T03220145  RH  034%=      5-min Rain = 0
KGO1 142249Z 13007KT 32/15 A3012 RMK A01 T03210145  RH  035%=      5-min Rain = 0
KGO1 142250Z 14004KT 32/15 A3012 RMK A01 T03220146  RH  034%=      5-min Rain = 0
KGO1 142251Z 16003KT 32/15 A3012 RMK A01 T03220145  RH  034%=      5-min Rain = 0
KGO1 142252Z 16002KT 32/15 A3012 RMK A01 T03220145  RH  034%=      5-min Rain = 0
KGO1 142253Z 19002KT 32/14 A3012 RMK A01 T03220144  RH  034%=      5-min Rain = 0
KGO1 142254Z 17001KT 32/14 A3012 RMK A01 T03220144  RH  034%=      5-min Rain = 0
KGO1 142255Z 12001KT 32/14 A3012 RMK A01 T03230144  RH  034%=      5-min Rain = 0
KGO1 142256Z 09003KT 32/15 A3012 RMK A01 T03230149  RH  035%=      5-min Rain = 0
KGO1 142257Z 08006KT 32/15 A3012 RMK A01 T03240149  RH  035%=      5-min Rain = 0
KGO1 142258Z 08004KT 32/15 A3012 RMK A01 T03240146  RH  034%=      5-min Rain = 0
KGO1 142259Z 07003KT 32/15 A3012 RMK A01 T03220145  RH  034%=      5-min Rain = 0
KGO1 142300Z 09006KT 32/15 A3012 RMK A01 T03210150  RH  036%=      5-min Rain = 0
KGO1 142301Z 09009KT 32/15 A3012 RMK A01 T03210154  RH  036%=      5-min Rain = 0
KGO1 142302Z 11008KT 32/15 A3012 RMK A01 T03220151  RH  036%=      5-min Rain = 0
KGO1 142303Z 12008KT 32/15 A3012 RMK A01 T03230151  RH  036%=      5-min Rain = 0
KGO1 142304Z 10008KT 32/15 A3012 RMK A01 T03240152  RH  035%=      5-min Rain = 0
KGO1 142305Z 08006KT 32/15 A3012 RMK A01 T03240150  RH  035%=      5-min Rain = 0
KGO1 142306Z 10007KT 32/15 A3012 RMK A01 T03240145  RH  034%=      5-min Rain = 0
KGO1 142307Z 10006KT 32/15 A3012 RMK A01 T03230147  RH  035%=      5-min Rain = 0
KGO1 142308Z 10006KT 32/14 A3012 RMK A01 T03230144  RH  034%=      5-min Rain = 0
KGO1 142309Z 09003KT 32/14 A3012 RMK A01 T03220142  RH  034%=      5-min Rain = 0
KGO1 142310Z 10003KT 32/14 A3012 RMK A01 T03200141  RH  034%=      5-min Rain = 0
KGO1 142311Z 11006KT 32/14 A3012 RMK A01 T03200143  RH  034%=      5-min Rain = 0
KGO1 142312Z 11009KT 32/15 A3012 RMK A01 T03200145  RH  035%=      5-min Rain = 0
KGO1 142313Z 09005KT 32/15 A3012 RMK A01 T03220145  RH  034%=      5-min Rain = 0
KGO1 142314Z 09003KT 32/14 A3012 RMK A01 T03220142  RH  034%=      5-min Rain = 0
KGO1 142315Z 07001KT 32/14 A3012 RMK A01 T03220142  RH  034%=      5-min Rain = 0
KGO1 142316Z 04001KT 32/14 A3012 RMK A01 T03220141  RH  033%=      5-min Rain = 0
KGO1 142317Z 01001KT 32/14 A3012 RMK A01 T03220141  RH  033%=      5-min Rain = 0
KGO1 142318Z 34001KT 32/14 A3012 RMK A01 T03220141  RH  033%=      5-min Rain = 0
KGO1 142319Z 02000KT 32/14 A3012 RMK A01 T03220142  RH  034%=      5-min Rain = 0
KGO1 142320Z 06001KT 32/14 A3012 RMK A01 T03230139  RH  033%=      5-min Rain = 0
KGO1 142321Z 08001KT 32/14 A3012 RMK A01 T03210140  RH  033%=      5-min Rain = 0
KGO1 142322Z 10002KT 32/14 A3012 RMK A01 T03210142  RH  034%=      5-min Rain = 0
KGO1 142323Z 07002KT 32/14 A3012 RMK A01 T03210139  RH  033%=      5-min Rain = 0
KGO1 142324Z 10003KT 32/14 A3012 RMK A01 T03220144  RH  034%=      5-min Rain = 0
KGO1 142325Z 11004KT 32/14 A3012 RMK A01 T03240140  RH  033%=      5-min Rain = 0
KGO1 142326Z 08004KT 32/14 A3012 RMK A01 T03240141  RH  033%=      5-min Rain = 0
KGO1 142327Z 07005KT 32/14 A3012 RMK A01 T03230141  RH  033%=      5-min Rain = 0
KGO1 142328Z 09005KT 32/14 A3012 RMK A01 T03230144  RH  034%=      5-min Rain = 0
KGO1 142329Z 10007KT 32/15 A3012 RMK A01 T03230149  RH  035%=      5-min Rain = 0
KGO1 142330Z 09006KT 32/14 A3012 RMK A01 T03240142  RH  033%=      5-min Rain = 0
KGO1 142331Z 09007KT 32/14 A3012 RMK A01 T03240144  RH  034%=      5-min Rain = 0
KGO1 142332Z 10005KT 32/14 A3013 RMK A01 T03220141  RH  033%=      5-min Rain = 0
KGO1 142333Z 09006KT 32/14 A3013 RMK A01 T03210143  RH  034%=      5-min Rain = 0
KGO1 142334Z 09005KT 32/14 A3012 RMK A01 T03210140  RH  033%=      5-min Rain = 0
KGO1 142335Z 08004KT 32/14 A3012 RMK A01 T03210142  RH  034%=      5-min Rain = 0
KGO1 142336Z 07002KT 32/14 A3012 RMK A01 T03210138  RH  033%=      5-min Rain = 0
KGO1 142337Z 08003KT 32/14 A3012 RMK A01 T03210139  RH  033%=      5-min Rain = 0
KGO1 142338Z 09003KT 32/14 A3012 RMK A01 T03200138  RH  033%=      5-min Rain = 0
KGO1 142339Z 10003KT 32/14 A3012 RMK A01 T03190137  RH  033%=      5-min Rain = 0
KGO1 142340Z 06002KT 32/14 A3012 RMK A01 T03180139  RH  034%=      5-min Rain = 0
KGO1 142341Z 04001KT 32/14 A3012 RMK A01 T03180139  RH  034%=      5-min Rain = 0
KGO1 142342Z 12002KT 32/14 A3012 RMK A01 T03200139  RH  033%=      5-min Rain = 0
KGO1 142343Z 12001KT 32/14 A3012 RMK A01 T03210137  RH  033%=      5-min Rain = 0
KGO1 142344Z 12002KT 32/14 A3012 RMK A01 T03210139  RH  033%=      5-min Rain = 0
KGO1 142345Z 12004KT 32/14 A3012 RMK A01 T03220139  RH  033%=      5-min Rain = 0
KGO1 142346Z 13002KT 32/14 A3012 RMK A01 T03220136  RH  032%=      5-min Rain = 0
KGO1 142347Z 14001KT 32/14 A3012 RMK A01 T03200135  RH  032%=      5-min Rain = 0
KGO1 142348Z 12002KT 32/14 A3012 RMK A01 T03200137  RH  033%=      5-min Rain = 0
KGO1 142349Z 09002KT 32/14 A3012 RMK A01 T03200137  RH  033%=      5-min Rain = 0
KGO1 142350Z 11005KT 32/14 A3012 RMK A01 T03210140  RH  034%=      5-min Rain = 0
KGO1 142351Z 10004KT 32/14 A3012 RMK A01 T03210138  RH  033%=      5-min Rain = 0
KGO1 142352Z 11005KT 32/14 A3012 RMK A01 T03200138  RH  033%=      5-min Rain = 0
KGO1 142353Z 11004KT 32/14 A3012 RMK A01 T03200139  RH  033%=      5-min Rain = 0
KGO1 142354Z 08005KT 32/14 A3012 RMK A01 T03200143  RH  034%=      5-min Rain = 0
KGO1 142355Z 08006KT 32/14 A3012 RMK A01 T03200143  RH  034%=      5-min Rain = 0
KGO1 142356Z 10006KT 32/15 A3012 RMK A01 T03200148  RH  035%=      5-min Rain = 0
KGO1 142357Z 10006KT 32/15 A3012 RMK A01 T03200147  RH  035%=      5-min Rain = 0
KGO1 142358Z 10006KT 32/15 A3012 RMK A01 T03200147  RH  035%=      5-min Rain = 0
KGO1 142359Z 10004KT 32/15 A3012 RMK A01 T03200145  RH  035%=      5-min Rain = 0
KGO1 150000Z 11003KT 32/14 A3012 RMK A01 T03200139  RH  033%=      5-min Rain = 0
KGO1 150001Z 10006KT 32/14 A3012 RMK A01 T03200140  RH  033%=      5-min Rain = 0
KGO1 150002Z 09007KT 32/14 A3012 RMK A01 T03200142  RH  034%=      5-min Rain = 0
KGO1 150003Z 10006KT 32/14 A3012 RMK A01 T03190144  RH  035%=      5-min Rain = 0
KGO1 150004Z 11007KT 32/14 A3012 RMK A01 T03190143  RH  034%=      5-min Rain = 0
KGO1 150005Z 11008KT 32/14 A3012 RMK A01 T03180140  RH  034%=      5-min Rain = 0
KGO1 150006Z 12006KT 32/14 A3012 RMK A01 T03170140  RH  034%=      5-min Rain = 0
KGO1 150007Z 11005KT 32/14 A3012 RMK A01 T03170136  RH  033%=      5-min Rain = 0
KGO1 150008Z 11004KT 32/14 A3012 RMK A01 T03170136  RH  033%=      5-min Rain = 0
KGO1 150009Z 11004KT 32/14 A3012 RMK A01 T03170136  RH  033%=      5-min Rain = 0
KGO1 150010Z 11005KT 32/14 A3012 RMK A01 T03170140  RH  034%=      5-min Rain = 0
KGO1 150011Z 10005KT 32/14 A3012 RMK A01 T03170140  RH  034%=      5-min Rain = 0
KGO1 150012Z 11006KT 32/14 A3012 RMK A01 T03170140  RH  034%=      5-min Rain = 0
KGO1 150013Z 12004KT 32/14 A3012 RMK A01 T03170137  RH  034%=      5-min Rain = 0
KGO1 150014Z 09003KT 32/14 A3012 RMK A01 T03170139  RH  034%=      5-min Rain = 0
KGO1 150015Z 09003KT 32/14 A3012 RMK A01 T03170140  RH  034%=      5-min Rain = 0
KGO1 150016Z 10003KT 32/14 A3012 RMK A01 T03170143  RH  035%=      5-min Rain = 0
KGO1 150017Z 10004KT 32/14 A3012 RMK A01 T03170143  RH  035%=      5-min Rain = 0
KGO1 150018Z 10005KT 32/15 A3012 RMK A01 T03170148  RH  036%=      5-min Rain = 0
KGO1 150019Z 10005KT 32/15 A3012 RMK A01 T03160147  RH  036%=      5-min Rain = 0
KGO1 150020Z 10005KT 32/15 A3012 RMK A01 T03160147  RH  036%=      5-min Rain = 0
KGO1 150021Z 08005KT 32/15 A3012 RMK A01 T03150149  RH  036%=      5-min Rain = 0
KGO1 150022Z 08005KT 32/15 A3012 RMK A01 T03150147  RH  036%=      5-min Rain = 0
KGO1 150023Z 08006KT 31/15 A3012 RMK A01 T03140147  RH  036%=      5-min Rain = 0
KGO1 150024Z 08005KT 31/15 A3012 RMK A01 T03130146  RH  036%=      5-min Rain = 0
KGO1 150025Z 08005KT 31/15 A3011 RMK A01 T03130146  RH  036%=      5-min Rain = 0
KGO1 150026Z 08005KT 31/15 A3011 RMK A01 T03130145  RH  036%=      5-min Rain = 0
KGO1 150027Z 08005KT 31/14 A3011 RMK A01 T03120144  RH  036%=      5-min Rain = 0
KGO1 150028Z 09005KT 31/15 A3011 RMK A01 T03120145  RH  036%=      5-min Rain = 0
KGO1 150029Z 09007KT 31/15 A3011 RMK A01 T03120148  RH  037%=      5-min Rain = 0
KGO1 150030Z 09007KT 31/15 A3011 RMK A01 T03120147  RH  037%=      5-min Rain = 0
KGO1 150031Z 09006KT 31/15 A3011 RMK A01 T03120148  RH  037%=      5-min Rain = 0
KGO1 150032Z 09005KT 31/15 A3011 RMK A01 T03110150  RH  038%=      5-min Rain = 0
KGO1 150033Z 09006KT 31/15 A3012 RMK A01 T03110149  RH  037%=      5-min Rain = 0
KGO1 150034Z 09006KT 31/15 A3012 RMK A01 T03110148  RH  037%=      5-min Rain = 0
KGO1 150035Z 10005KT 31/15 A3012 RMK A01 T03110151  RH  038%=      5-min Rain = 0
KGO1 150036Z 10005KT 31/15 A3012 RMK A01 T03100151  RH  038%=      5-min Rain = 0
KGO1 150037Z 10005KT 31/15 A3012 RMK A01 T03100147  RH  037%=      5-min Rain = 0
KGO1 150038Z 09004KT 31/15 A3012 RMK A01 T03100150  RH  038%=      5-min Rain = 0
KGO1 150039Z 09005KT 31/15 A3012 RMK A01 T03100154  RH  039%=      5-min Rain = 0
KGO1 150040Z 09005KT 31/15 A3012 RMK A01 T03090154  RH  039%=      5-min Rain = 0
KGO1 150041Z 09005KT 31/15 A3012 RMK A01 T03090154  RH  039%=      5-min Rain = 0
KGO1 150042Z 09006KT 31/15 A3012 RMK A01 T03090152  RH  039%=      5-min Rain = 0
KGO1 150043Z 09006KT 31/15 A3012 RMK A01 T03080150  RH  038%=      5-min Rain = 0
KGO1 150044Z 09006KT 31/15 A3012 RMK A01 T03080145  RH  037%=      5-min Rain = 0
KGO1 150045Z 09005KT 31/14 A3012 RMK A01 T03080141  RH  036%=      5-min Rain = 0
KGO1 150046Z 10004KT 31/14 A3012 RMK A01 T03080143  RH  037%=      5-min Rain = 0
KGO1 150047Z 10004KT 31/15 A3012 RMK A01 T03080146  RH  037%=      5-min Rain = 0
KGO1 150048Z 09004KT 31/15 A3012 RMK A01 T03080146  RH  037%=      5-min Rain = 0
KGO1 150049Z 09004KT 31/15 A3012 RMK A01 T03070150  RH  038%=      5-min Rain = 0
KGO1 150050Z 08004KT 31/15 A3012 RMK A01 T03070151  RH  039%=      5-min Rain = 0
KGO1 150051Z 08004KT 31/15 A3012 RMK A01 T03060147  RH  038%=      5-min Rain = 0
KGO1 150052Z 09004KT 31/14 A3012 RMK A01 T03050144  RH  038%=      5-min Rain = 0
KGO1 150053Z 09004KT 31/15 A3012 RMK A01 T03050146  RH  038%=      5-min Rain = 0
KGO1 150054Z 09005KT 30/15 A3012 RMK A01 T03040150  RH  039%=      5-min Rain = 0
KGO1 150055Z 10006KT 30/15 A3012 RMK A01 T03040152  RH  040%=      5-min Rain = 0
KGO1 150056Z 10006KT 30/15 A3012 RMK A01 T03030154  RH  041%=      5-min Rain = 0
KGO1 150057Z 10006KT 30/16 A3012 RMK A01 T03010156  RH  041%=      5-min Rain = 0
KGO1 150058Z 09007KT 30/16 A3012 RMK A01 T03000158  RH  042%=      5-min Rain = 0
KGO1 150059Z 09007KT 30/16 A3012 RMK A01 T02980159  RH  043%=      5-min Rain = 0
KGO1 150100Z 09007KT 30/16 A3012 RMK A01 T02960160  RH  044%=      5-min Rain = 0
KGO1 150101Z 09006KT 30/16 A3012 RMK A01 T02950160  RH  044%=      5-min Rain = 0
KGO1 150102Z 09007KT 29/16 A3012 RMK A01 T02930159  RH  044%=      5-min Rain = 0
KGO1 150103Z 09006KT 29/16 A3013 RMK A01 T02920158  RH  044%=      5-min Rain = 0
KGO1 150104Z 09005KT 29/16 A3013 RMK A01 T02920160  RH  045%=      5-min Rain = 0
KGO1 150105Z 09005KT 29/16 A3013 RMK A01 T02910160  RH  045%=      5-min Rain = 0
KGO1 150106Z 09004KT 29/16 A3013 RMK A01 T02900161  RH  046%=      5-min Rain = 0
KGO1 150107Z 09005KT 29/16 A3013 RMK A01 T02890161  RH  046%=      5-min Rain = 0
KGO1 150108Z 09005KT 29/16 A3013 RMK A01 T02890161  RH  046%=      5-min Rain = 0
KGO1 150109Z 10006KT 29/17 A3013 RMK A01 T02880165  RH  048%=      5-min Rain = 0
KGO1 150110Z 10006KT 29/17 A3013 RMK A01 T02860166  RH  048%=      5-min Rain = 0
KGO1 150111Z 11006KT 28/17 A3013 RMK A01 T02840165  RH  049%=      5-min Rain = 0
KGO1 150112Z 11007KT 28/16 A3013 RMK A01 T02830163  RH  048%=      5-min Rain = 0
KGO1 150113Z 11007KT 28/16 A3013 RMK A01 T02820162  RH  048%=      5-min Rain = 0
KGO1 150114Z 11007KT 28/16 A3013 RMK A01 T02820162  RH  048%=      5-min Rain = 0
KGO1 150115Z 10006KT 28/16 A3013 RMK A01 T02810160  RH  048%=      5-min Rain = 0
KGO1 150116Z 10006KT 28/16 A3013 RMK A01 T02810159  RH  048%=      5-min Rain = 0
KGO1 150117Z 10006KT 28/16 A3013 RMK A01 T02810159  RH  048%=      5-min Rain = 0
KGO1 150118Z 10006KT 28/16 A3013 RMK A01 T02800160  RH  048%=      5-min Rain = 0
KGO1 150119Z 10006KT 28/16 A3013 RMK A01 T02790161  RH  048%=      5-min Rain = 0
KGO1 150120Z 10006KT 28/16 A3013 RMK A01 T02790162  RH  049%=      5-min Rain = 0
KGO1 150121Z 10006KT 28/16 A3013 RMK A01 T02780163  RH  049%=      5-min Rain = 0
KGO1 150122Z 10006KT 28/16 A3013 RMK A01 T02770163  RH  050%=      5-min Rain = 0
KGO1 150123Z 10006KT 28/16 A3013 RMK A01 T02760163  RH  050%=      5-min Rain = 0
KGO1 150124Z 10006KT 28/16 A3013 RMK A01 T02760163  RH  050%=      5-min Rain = 0
KGO1 150125Z 10006KT 28/16 A3013 RMK A01 T02750163  RH  050%=      5-min Rain = 0
KGO1 150126Z 10006KT 27/16 A3013 RMK A01 T02740163  RH  051%=      5-min Rain = 0
KGO1 150127Z 11005KT 27/16 A3013 RMK A01 T02740163  RH  051%=      5-min Rain = 0
KGO1 150128Z 10005KT 27/16 A3013 RMK A01 T02730163  RH  051%=      5-min Rain = 0
KGO1 150129Z 10005KT 27/16 A3014 RMK A01 T02720163  RH  051%=      5-min Rain = 0
KGO1 150130Z 10004KT 27/16 A3014 RMK A01 T02710164  RH  052%=      5-min Rain = 0
KGO1 150131Z 10005KT 27/17 A3014 RMK A01 T02700165  RH  052%=      5-min Rain = 0
KGO1 150132Z 10005KT 27/17 A3014 RMK A01 T02690165  RH  053%=      5-min Rain = 0
KGO1 150133Z 10004KT 27/16 A3014 RMK A01 T02680164  RH  053%=      5-min Rain = 0
KGO1 150134Z 10004KT 27/16 A3014 RMK A01 T02670164  RH  053%=      5-min Rain = 0
KGO1 150135Z 10005KT 27/16 A3014 RMK A01 T02670164  RH  053%=      5-min Rain = 0
KGO1 150136Z 10005KT 27/17 A3014 RMK A01 T02660165  RH  054%=      5-min Rain = 0
KGO1 150137Z 11005KT 27/16 A3014 RMK A01 T02650164  RH  054%=      5-min Rain = 0
KGO1 150138Z 11006KT 27/16 A3014 RMK A01 T02650163  RH  053%=      5-min Rain = 0
KGO1 150139Z 11005KT 27/16 A3014 RMK A01 T02650161  RH  053%=      5-min Rain = 0
KGO1 150140Z 11005KT 27/16 A3014 RMK A01 T02650161  RH  053%=      5-min Rain = 0
KGO1 150141Z 11005KT 27/16 A3014 RMK A01 T02650162  RH  053%=      5-min Rain = 0
KGO1 150142Z 11005KT 26/16 A3014 RMK A01 T02640162  RH  053%=      5-min Rain = 0
KGO1 150143Z 12005KT 26/16 A3014 RMK A01 T02640163  RH  054%=      5-min Rain = 0
KGO1 150144Z 12005KT 26/16 A3014 RMK A01 T02630164  RH  054%=      5-min Rain = 0
KGO1 150145Z 12005KT 26/16 A3014 RMK A01 T02620164  RH  055%=      5-min Rain = 0
KGO1 150146Z 12005KT 26/16 A3014 RMK A01 T02610164  RH  055%=      5-min Rain = 0
KGO1 150147Z 12005KT 26/16 A3014 RMK A01 T02600164  RH  055%=      5-min Rain = 0
KGO1 150148Z 11005KT 26/16 A3014 RMK A01 T02590164  RH  056%=      5-min Rain = 0
KGO1 150149Z 11005KT 26/16 A3014 RMK A01 T02580164  RH  056%=      5-min Rain = 0
KGO1 150150Z 11005KT 26/16 A3014 RMK A01 T02580162  RH  055%=      5-min Rain = 0
KGO1 150151Z 11005KT 26/16 A3014 RMK A01 T02580162  RH  055%=      5-min Rain = 0
KGO1 150152Z 11005KT 26/16 A3014 RMK A01 T02580161  RH  055%=      5-min Rain = 0
KGO1 150153Z 11006KT 26/16 A3014 RMK A01 T02580160  RH  055%=      5-min Rain = 0
KGO1 150154Z 11006KT 26/16 A3014 RMK A01 T02580160  RH  054%=      5-min Rain = 0
KGO1 150155Z 11006KT 26/16 A3014 RMK A01 T02580158  RH  054%=      5-min Rain = 0
KGO1 150156Z 11006KT 26/16 A3014 RMK A01 T02590158  RH  054%=      5-min Rain = 0
KGO1 150157Z 11006KT 26/16 A3014 RMK A01 T02580158  RH  054%=      5-min Rain = 0
KGO1 150158Z 11005KT 26/16 A3014 RMK A01 T02590158  RH  054%=      5-min Rain = 0
KGO1 150159Z 11006KT 26/16 A3014 RMK A01 T02590158  RH  054%=      5-min Rain = 0
KGO1 150200Z 11006KT 26/16 A3014 RMK A01 T02590159  RH  054%=      5-min Rain = 0
KGO1 150201Z 11006KT 26/16 A3014 RMK A01 T02590159  RH  054%=      5-min Rain = 0
KGO1 150202Z 11006KT 26/16 A3015 RMK A01 T02580161  RH  055%=      5-min Rain = 0
KGO1 150203Z 11006KT 26/16 A3015 RMK A01 T02580163  RH  055%=      5-min Rain = 0
KGO1 150204Z 11006KT 26/16 A3015 RMK A01 T02580164  RH  056%=      5-min Rain = 0
KGO1 150205Z 11006KT 26/16 A3015 RMK A01 T02570164  RH  056%=      5-min Rain = 0
KGO1 150206Z 11006KT 26/16 A3015 RMK A01 T02560164  RH  057%=      5-min Rain = 0
KGO1 150207Z 11006KT 26/16 A3015 RMK A01 T02560164  RH  057%=      5-min Rain = 0
KGO1 150208Z 11006KT 26/16 A3015 RMK A01 T02550164  RH  057%=      5-min Rain = 0
KGO1 150209Z 11006KT 26/17 A3015 RMK A01 T02550165  RH  057%=      5-min Rain = 0
KGO1 150210Z 11007KT 25/16 A3015 RMK A01 T02540163  RH  057%=      5-min Rain = 0
KGO1 150211Z 11007KT 25/16 A3015 RMK A01 T02540162  RH  056%=      5-min Rain = 0
KGO1 150212Z 11007KT 25/16 A3015 RMK A01 T02540162  RH  057%=      5-min Rain = 0
KGO1 150213Z 11007KT 25/16 A3015 RMK A01 T02530163  RH  057%=      5-min Rain = 0
KGO1 150214Z 11007KT 25/16 A3015 RMK A01 T02530164  RH  058%=      5-min Rain = 0
KGO1 150215Z 11007KT 25/16 A3015 RMK A01 T02520163  RH  058%=      5-min Rain = 0
KGO1 150216Z 12006KT 25/16 A3015 RMK A01 T02520163  RH  058%=      5-min Rain = 0
KGO1 150217Z 12007KT 25/16 A3015 RMK A01 T02520162  RH  057%=      5-min Rain = 0
KGO1 150218Z 11007KT 25/16 A3015 RMK A01 T02520161  RH  057%=      5-min Rain = 0
KGO1 150219Z 11006KT 25/16 A3015 RMK A01 T02520161  RH  057%=      5-min Rain = 0
KGO1 150220Z 11007KT 25/16 A3015 RMK A01 T02520160  RH  057%=      5-min Rain = 0
KGO1 150221Z 11007KT 25/16 A3015 RMK A01 T02520159  RH  056%=      5-min Rain = 0
KGO1 150222Z 11007KT 25/16 A3015 RMK A01 T02530159  RH  056%=      5-min Rain = 0
KGO1 150223Z 11007KT 25/16 A3015 RMK A01 T02540159  RH  056%=      5-min Rain = 0
KGO1 150224Z 11007KT 25/16 A3015 RMK A01 T02540159  RH  056%=      5-min Rain = 0
KGO1 150225Z 11007KT 25/16 A3015 RMK A01 T02540159  RH  056%=      5-min Rain = 0
KGO1 150226Z 11007KT 25/16 A3015 RMK A01 T02540159  RH  056%=      5-min Rain = 0
KGO1 150227Z 11008KT 25/16 A3015 RMK A01 T02540159  RH  056%=      5-min Rain = 0
KGO1 150228Z 12008KT 26/16 A3015 RMK A01 T02550160  RH  056%=      5-min Rain = 0
KGO1 150229Z 11008KT 26/16 A3015 RMK A01 T02550160  RH  056%=      5-min Rain = 0
KGO1 150230Z 11008KT 26/16 A3015 RMK A01 T02550160  RH  055%=      5-min Rain = 0
KGO1 150231Z 12008KT 26/16 A3015 RMK A01 T02560160  RH  055%=      5-min Rain = 0
KGO1 150232Z 12008KT 26/16 A3015 RMK A01 T02570160  RH  055%=      5-min Rain = 0
KGO1 150233Z 12008KT 26/16 A3015 RMK A01 T02570161  RH  055%=      5-min Rain = 0
KGO1 150234Z 12009KT 26/16 A3015 RMK A01 T02580161  RH  055%=      5-min Rain = 0
KGO1 150235Z 12008KT 26/16 A3015 RMK A01 T02590161  RH  055%=      5-min Rain = 0
KGO1 150236Z 12008KT 26/16 A3015 RMK A01 T02600161  RH  054%=      5-min Rain = 0
KGO1 150237Z 12008KT 26/16 A3016 RMK A01 T02610161  RH  054%=      5-min Rain = 0
KGO1 150238Z 12009KT 26/16 A3016 RMK A01 T02610162  RH  054%=      5-min Rain = 0
KGO1 150239Z 12008KT 26/16 A3016 RMK A01 T02610163  RH  054%=      5-min Rain = 0
KGO1 150240Z 12008KT 26/16 A3015 RMK A01 T02610163  RH  055%=      5-min Rain = 0
KGO1 150241Z 12008KT 26/16 A3015 RMK A01 T02610163  RH  055%=      5-min Rain = 0
KGO1 150242Z 12009KT 26/16 A3015 RMK A01 T02610162  RH  055%=      5-min Rain = 0
KGO1 150243Z 12009KT 26/16 A3015 RMK A01 T02620163  RH  055%=      5-min Rain = 0
KGO1 150244Z 12008KT 26/16 A3015 RMK A01 T02620163  RH  055%=      5-min Rain = 0
KGO1 150245Z 11008KT 26/16 A3015 RMK A01 T02620163  RH  055%=      5-min Rain = 0
KGO1 150246Z 12008KT 26/16 A3016 RMK A01 T02620163  RH  055%=      5-min Rain = 0
KGO1 150247Z 12009KT 26/16 A3016 RMK A01 T02610163  RH  055%=      5-min Rain = 0
KGO1 150248Z 12009KT 26/16 A3016 RMK A01 T02610162  RH  054%=      5-min Rain = 0
KGO1 150249Z 12008KT 26/16 A3016 RMK A01 T02620162  RH  054%=      5-min Rain = 0
KGO1 150250Z 12008KT 26/16 A3016 RMK A01 T02620162  RH  054%=      5-min Rain = 0
KGO1 150251Z 12008KT 26/16 A3016 RMK A01 T02620162  RH  054%=      5-min Rain = 0
KGO1 150252Z 12009KT 26/16 A3016 RMK A01 T02620162  RH  054%=      5-min Rain = 0
KGO1 150253Z 12008KT 26/16 A3016 RMK A01 T02630163  RH  054%=      5-min Rain = 0
KGO1 150254Z 12008KT 26/16 A3016 RMK A01 T02630163  RH  054%=      5-min Rain = 0
KGO1 150255Z 12009KT 26/16 A3016 RMK A01 T02630163  RH  054%=      5-min Rain = 0
KGO1 150256Z 12008KT 26/16 A3016 RMK A01 T02630162  RH  054%=      5-min Rain = 0
KGO1 150257Z 12009KT 26/16 A3016 RMK A01 T02630163  RH  054%=      5-min Rain = 0
KGO1 150258Z 12008KT 26/16 A3016 RMK A01 T02630163  RH  054%=      5-min Rain = 0
KGO1 150259Z 12008KT 26/16 A3016 RMK A01 T02620163  RH  055%=      5-min Rain = 0
KGO1 150300Z 12008KT 26/16 A3016 RMK A01 T02610163  RH  055%=      5-min Rain = 0
KGO1 150301Z 12008KT 26/16 A3016 RMK A01 T02610163  RH  055%=      5-min Rain = 0
KGO1 150302Z 12008KT 26/16 A3016 RMK A01 T02600163  RH  055%=      5-min Rain = 0
KGO1 150303Z 12007KT 26/16 A3016 RMK A01 T02600164  RH  055%=      5-min Rain = 0
KGO1 150304Z 12008KT 26/16 A3016 RMK A01 T02600163  RH  055%=      5-min Rain = 0
KGO1 150305Z 12008KT 26/16 A3016 RMK A01 T02600163  RH  055%=      5-min Rain = 0
KGO1 150306Z 12008KT 26/16 A3016 RMK A01 T02590163  RH  055%=      5-min Rain = 0
KGO1 150307Z 12008KT 26/16 A3016 RMK A01 T02590161  RH  055%=      5-min Rain = 0
KGO1 150308Z 12008KT 26/16 A3016 RMK A01 T02600162  RH  055%=      5-min Rain = 0
KGO1 150309Z 12008KT 26/16 A3016 RMK A01 T02600163  RH  055%=      5-min Rain = 0
KGO1 150310Z 12008KT 26/16 A3017 RMK A01 T02600163  RH  055%=      5-min Rain = 0
KGO1 150311Z 12008KT 26/16 A3017 RMK A01 T02600163  RH  055%=      5-min Rain = 0
KGO1 150312Z 11008KT 26/16 A3017 RMK A01 T02600163  RH  055%=      5-min Rain = 0
KGO1 150313Z 12008KT 26/16 A3017 RMK A01 T02590162  RH  055%=      5-min Rain = 0
KGO1 150314Z 12008KT 26/16 A3017 RMK A01 T02600162  RH  055%=      5-min Rain = 0
KGO1 150315Z 12008KT 26/16 A3017 RMK A01 T02600162  RH  055%=      5-min Rain = 0
KGO1 150316Z 12008KT 26/16 A3017 RMK A01 T02600162  RH  055%=      5-min Rain = 0
KGO1 150317Z 12008KT 26/16 A3017 RMK A01 T02590162  RH  055%=      5-min Rain = 0
KGO1 150318Z 12008KT 26/16 A3017 RMK A01 T02590162  RH  055%=      5-min Rain = 0
KGO1 150319Z 12008KT 26/16 A3017 RMK A01 T02600162  RH  055%=      5-min Rain = 0
KGO1 150320Z 12008KT 26/16 A3017 RMK A01 T02600161  RH  054%=      5-min Rain = 0
KGO1 150321Z 12008KT 26/16 A3017 RMK A01 T02600161  RH  054%=      5-min Rain = 0
KGO1 150322Z 12008KT 26/16 A3017 RMK A01 T02600162  RH  055%=      5-min Rain = 0
KGO1 150323Z 12008KT 26/16 A3017 RMK A01 T02600162  RH  055%=      5-min Rain = 0
KGO1 150324Z 12008KT 26/16 A3017 RMK A01 T02600162  RH  055%=      5-min Rain = 0
KGO1 150325Z 12008KT 26/16 A3017 RMK A01 T02590162  RH  055%=      5-min Rain = 0
KGO1 150326Z 12008KT 26/16 A3017 RMK A01 T02590162  RH  055%=      5-min Rain = 0
KGO1 150327Z 12009KT 26/16 A3017 RMK A01 T02590162  RH  055%=      5-min Rain = 0
KGO1 150328Z 13009KT 26/16 A3017 RMK A01 T02590162  RH  055%=      5-min Rain = 0
KGO1 150329Z 13010KT 26/16 A3017 RMK A01 T02590160  RH  054%=      5-min Rain = 0
KGO1 150330Z 13010KT 26/16 A3017 RMK A01 T02620161  RH  054%=      5-min Rain = 0
KGO1 150331Z 13010KT 26/16 A3017 RMK A01 T02630161  RH  053%=      5-min Rain = 0
KGO1 150332Z 13009KT 26/16 A3018 RMK A01 T02640161  RH  053%=      5-min Rain = 0
KGO1 150333Z 13010KT 27/16 A3018 RMK A01 T02650161  RH  053%=      5-min Rain = 0
KGO1 150334Z 14009KT 27/16 A3018 RMK A01 T02650161  RH  053%=      5-min Rain = 0
KGO1 150335Z 14009KT 27/16 A3018 RMK A01 T02660161  RH  052%=      5-min Rain = 0
KGO1 150336Z 14009KT 27/16 A3018 RMK A01 T02660160  RH  052%=      5-min Rain = 0
KGO1 150337Z 14009KT 27/16 A3018 RMK A01 T02660160  RH  052%=      5-min Rain = 0
KGO1 150338Z 13009KT 27/16 A3018 RMK A01 T02660160  RH  052%=      5-min Rain = 0
KGO1 150339Z 14010KT 27/16 A3018 RMK A01 T02660160  RH  052%=      5-min Rain = 0
KGO1 150340Z 14010KT 27/16 A3018 RMK A01 T02670160  RH  052%=      5-min Rain = 0
KGO1 150341Z 14011KT 27/16 A3018 RMK A01 T02670160  RH  052%=      5-min Rain = 0
KGO1 150342Z 14010KT 27/16 A3018 RMK A01 T02670160  RH  052%=      5-min Rain = 0
KGO1 150343Z 14010KT 27/16 A3018 RMK A01 T02670160  RH  052%=      5-min Rain = 0
KGO1 150344Z 14009KT 27/16 A3018 RMK A01 T02670161  RH  052%=      5-min Rain = 0
KGO1 150345Z 14009KT 27/16 A3018 RMK A01 T02670161  RH  052%=      5-min Rain = 0
KGO1 150346Z 14009KT 27/16 A3018 RMK A01 T02660161  RH  052%=      5-min Rain = 0
KGO1 150347Z 14009KT 27/16 A3018 RMK A01 T02650161  RH  053%=      5-min Rain = 0
KGO1 150348Z 14008KT 27/16 A3018 RMK A01 T02650161  RH  053%=      5-min Rain = 0
KGO1 150349Z 14009KT 26/16 A3018 RMK A01 T02640161  RH  053%=      5-min Rain = 0
KGO1 150350Z 14008KT 26/16 A3018 RMK A01 T02640161  RH  053%=      5-min Rain = 0
KGO1 150351Z 14008KT 26/16 A3018 RMK A01 T02630161  RH  053%=      5-min Rain = 0
KGO1 150352Z 14008KT 26/16 A3018 RMK A01 T02630162  RH  054%=      5-min Rain = 0
KGO1 150353Z 14008KT 26/16 A3018 RMK A01 T02620162  RH  054%=      5-min Rain = 0
KGO1 150354Z 14008KT 26/16 A3019 RMK A01 T02620162  RH  054%=      5-min Rain = 0
KGO1 150355Z 14007KT 26/16 A3019 RMK A01 T02620162  RH  054%=      5-min Rain = 0
KGO1 150356Z 14007KT 26/16 A3019 RMK A01 T02610162  RH  055%=      5-min Rain = 0
KGO1 150357Z 14007KT 26/16 A3019 RMK A01 T02600163  RH  055%=      5-min Rain = 0
KGO1 150358Z 14007KT 26/16 A3019 RMK A01 T02600163  RH  055%=      5-min Rain = 0
KGO1 150359Z 14007KT 26/16 A3019 RMK A01 T02590162  RH  055%=      5-min Rain = 0
KGO1 150400Z 13007KT 26/16 A3019 RMK A01 T02590163  RH  055%=      5-min Rain = 0
KGO1 150401Z 13007KT 26/16 A3019 RMK A01 T02590163  RH  055%=      5-min Rain = 0
KGO1 150402Z 14007KT 26/16 A3019 RMK A01 T02590163  RH  055%=      5-min Rain = 0
KGO1 150403Z 14007KT 26/16 A3019 RMK A01 T02590164  RH  056%=      5-min Rain = 0
KGO1 150404Z 14007KT 26/16 A3019 RMK A01 T02590163  RH  056%=      5-min Rain = 0
KGO1 150405Z 14006KT 26/16 A3019 RMK A01 T02580163  RH  056%=      5-min Rain = 0
KGO1 150406Z 14007KT 26/16 A3019 RMK A01 T02580163  RH  056%=      5-min Rain = 0
KGO1 150407Z 14007KT 26/16 A3019 RMK A01 T02580163  RH  056%=      5-min Rain = 0
KGO1 150408Z 14007KT 26/16 A3019 RMK A01 T02580162  RH  055%=      5-min Rain = 0
KGO1 150409Z 14008KT 26/16 A3019 RMK A01 T02580162  RH  055%=      5-min Rain = 0
KGO1 150410Z 14008KT 26/16 A3019 RMK A01 T02580162  RH  055%=      5-min Rain = 0
KGO1 150411Z 14008KT 26/16 A3019 RMK A01 T02590162  RH  055%=      5-min Rain = 0
KGO1 150412Z 14007KT 26/16 A3019 RMK A01 T02580162  RH  055%=      5-min Rain = 0
KGO1 150413Z 14007KT 26/16 A3019 RMK A01 T02590163  RH  055%=      5-min Rain = 0
KGO1 150414Z 14007KT 26/16 A3019 RMK A01 T02590163  RH  055%=      5-min Rain = 0
KGO1 150415Z 14008KT 26/16 A3019 RMK A01 T02580163  RH  056%=      5-min Rain = 0
KGO1 150416Z 14007KT 26/16 A3019 RMK A01 T02580162  RH  055%=      5-min Rain = 0
KGO1 150417Z 14008KT 26/16 A3019 RMK A01 T02580162  RH  055%=      5-min Rain = 0
KGO1 150418Z 15007KT 26/16 A3019 RMK A01 T02580162  RH  055%=      5-min Rain = 0
KGO1 150419Z 14007KT 26/16 A3019 RMK A01 T02590162  RH  055%=      5-min Rain = 0
KGO1 150420Z 14007KT 26/16 A3019 RMK A01 T02580163  RH  055%=      5-min Rain = 0
KGO1 150421Z 14007KT 26/16 A3019 RMK A01 T02590163  RH  055%=      5-min Rain = 0
KGO1 150422Z 14008KT 26/16 A3019 RMK A01 T02590163  RH  055%=      5-min Rain = 0
KGO1 150423Z 14008KT 26/16 A3019 RMK A01 T02580163  RH  055%=      5-min Rain = 0
KGO1 150424Z 14007KT 26/16 A3019 RMK A01 T02590163  RH  055%=      5-min Rain = 0
KGO1 150425Z 14006KT 26/16 A3019 RMK A01 T02590163  RH  056%=      5-min Rain = 0
KGO1 150426Z 14006KT 26/16 A3019 RMK A01 T02580163  RH  056%=      5-min Rain = 0
KGO1 150427Z 14007KT 26/16 A3019 RMK A01 T02570163  RH  056%=      5-min Rain = 0
KGO1 150428Z 14007KT 26/16 A3019 RMK A01 T02560163  RH  056%=      5-min Rain = 0
KGO1 150429Z 14007KT 26/16 A3019 RMK A01 T02560163  RH  056%=      5-min Rain = 0
KGO1 150430Z 15006KT 26/16 A3019 RMK A01 T02560163  RH  056%=      5-min Rain = 0
KGO1 150431Z 15007KT 26/16 A3019 RMK A01 T02550163  RH  057%=      5-min Rain = 0
KGO1 150432Z 15006KT 26/16 A3019 RMK A01 T02550163  RH  057%=      5-min Rain = 0
KGO1 150433Z 15007KT 25/16 A3019 RMK A01 T02540163  RH  057%=      5-min Rain = 0
KGO1 150434Z 15006KT 26/16 A3019 RMK A01 T02550164  RH  057%=      5-min Rain = 0
KGO1 150435Z 15006KT 25/16 A3019 RMK A01 T02540163  RH  057%=      5-min Rain = 0
KGO1 150436Z 15007KT 25/16 A3019 RMK A01 T02540163  RH  057%=      5-min Rain = 0
KGO1 150437Z 15007KT 25/16 A3019 RMK A01 T02540163  RH  057%=      5-min Rain = 0
KGO1 150438Z 15007KT 25/16 A302 RMK A01 T02540163  RH  057%=      5-min Rain = 0
KGO1 150439Z 15006KT 25/16 A302 RMK A01 T02540164  RH  057%=      5-min Rain = 0
KGO1 150440Z 15006KT 25/16 A302 RMK A01 T02540164  RH  057%=      5-min Rain = 0
KGO1 150441Z 15006KT 25/16 A302 RMK A01 T02540164  RH  057%=      5-min Rain = 0
KGO1 150442Z 15007KT 25/16 A302 RMK A01 T02530164  RH  057%=      5-min Rain = 0
KGO1 150443Z 15007KT 25/16 A302 RMK A01 T02530163  RH  058%=      5-min Rain = 0
KGO1 150444Z 15007KT 25/16 A302 RMK A01 T02520163  RH  058%=      5-min Rain = 0
KGO1 150445Z 15007KT 25/16 A302 RMK A01 T02520163  RH  058%=      5-min Rain = 0
KGO1 150446Z 15007KT 25/16 A302 RMK A01 T02530163  RH  058%=      5-min Rain = 0
KGO1 150447Z 15007KT 25/16 A302 RMK A01 T02520163  RH  058%=      5-min Rain = 0
KGO1 150448Z 15007KT 25/16 A302 RMK A01 T02520163  RH  058%=      5-min Rain = 0
KGO1 150449Z 15007KT 25/16 A302 RMK A01 T02530163  RH  058%=      5-min Rain = 0
KGO1 150450Z 15007KT 25/16 A302 RMK A01 T02530163  RH  058%=      5-min Rain = 0
KGO1 150451Z 15007KT 25/16 A302 RMK A01 T02530163  RH  058%=      5-min Rain = 0
KGO1 150452Z 15007KT 25/16 A302 RMK A01 T02530163  RH  058%=      5-min Rain = 0
KGO1 150453Z 15007KT 25/16 A302 RMK A01 T02530164  RH  058%=      5-min Rain = 0
KGO1 150454Z 15007KT 25/16 A302 RMK A01 T02520163  RH  058%=      5-min Rain = 0
KGO1 150455Z 15007KT 25/16 A3019 RMK A01 T02520163  RH  058%=      5-min Rain = 0
KGO1 150456Z 15007KT 25/16 A3019 RMK A01 T02520163  RH  058%=      5-min Rain = 0
KGO1 150457Z 15007KT 25/16 A3019 RMK A01 T02510162  RH  058%=      5-min Rain = 0
KGO1 150458Z 15007KT 25/16 A3019 RMK A01 T02510162  RH  058%=      5-min Rain = 0
KGO1 150459Z 15007KT 25/16 A3019 RMK A01 T02510162  RH  058%=      5-min Rain = 0

Page generated in 0.0715 seconds.